<?xml version="1.0" encoding="UTF-8" standalone="no" ?>
<gpx xmlns="http://www.topografix.com/GPX/1/1" xmlns:xsi="http://www.w3.org/2001/XMLSchema-instance" xsi:schemaLocation="http://www.topografix.com/GPX/1/1 http://www.topografix.com/GPX/1/1/gpx.xsd" version="1.1" creator="VisuGPX - https://www.visugpx.com">
  <metadata>
    <name>Saint-Guilhem-le-Désert autrement</name>
  </metadata>
  <wpt lat="43.74134" lon="3.50231">
    <ele>459</ele>
    <name><![CDATA[Parking en bordure de la D122]]></name>
  </wpt>
  <wpt lat="43.74053" lon="3.50715">
    <ele>428</ele>
    <name><![CDATA[Croisement 1]]></name>
  </wpt>
  <wpt lat="43.73258" lon="3.52716">
    <ele>542</ele>
    <name><![CDATA[Bifurcation vers Max Nègre]]></name>
  </wpt>
  <wpt lat="43.73512" lon="3.52884">
    <ele>521</ele>
    <name><![CDATA[Point de vue Max Nègre]]></name>
  </wpt>
  <wpt lat="43.73317" lon="3.53003">
    <ele>498</ele>
    <name><![CDATA[Jonction avec les GR]]></name>
  </wpt>
  <wpt lat="43.7359" lon="3.53745">
    <ele>340</ele>
    <name><![CDATA[Point de vue]]></name>
  </wpt>
  <wpt lat="43.73557" lon="3.53988">
    <ele>227</ele>
    <name><![CDATA[Jonction avec chemin retour (poteau) ]]></name>
  </wpt>
  <wpt lat="43.73676" lon="3.54671">
    <ele>124</ele>
    <name><![CDATA[Fond de vallée]]></name>
  </wpt>
  <wpt lat="43.73382" lon="3.54999">
    <ele>115</ele>
    <name><![CDATA[Chevet de l'église]]></name>
  </wpt>
  <wpt lat="43.73814" lon="3.52989">
    <ele>356</ele>
    <name><![CDATA[Soutènement du chemin]]></name>
  </wpt>
  <wpt lat="43.73922" lon="3.52338">
    <ele>313</ele>
    <name><![CDATA[Croisement]]></name>
  </wpt>
  <wpt lat="43.74201" lon="3.51554">
    <ele>339</ele>
    <name><![CDATA[Tout droit]]></name>
  </wpt>
  <wpt lat="43.74133" lon="3.50225">
    <ele>459</ele>
    <name><![CDATA[Parking en bordure de la D122]]></name>
  </wpt>
  <trk>
    <name><![CDATA[Saint-Guilhem-le-Désert autrement]]></name>
    <trkseg>
      <trkpt lat="43.74134" lon="3.50231">
        <ele>459</ele>
        <time>2016-05-06T09:49:15+02:00</time>
      </trkpt>
      <trkpt lat="43.74136" lon="3.50228">
        <ele>460</ele>
        <time>2016-05-06T09:49:57+02:00</time>
      </trkpt>
      <trkpt lat="43.74129" lon="3.50228">
        <ele>458</ele>
        <time>2016-05-06T09:50:08+02:00</time>
      </trkpt>
      <trkpt lat="43.74127" lon="3.50223">
        <ele>458</ele>
        <time>2016-05-06T09:50:36+02:00</time>
      </trkpt>
      <trkpt lat="43.74131" lon="3.50226">
        <ele>459</ele>
        <time>2016-05-06T09:50:59+02:00</time>
      </trkpt>
      <trkpt lat="43.74133" lon="3.50236">
        <ele>458</ele>
        <time>2016-05-06T09:51:52+02:00</time>
      </trkpt>
      <trkpt lat="43.74131" lon="3.50241">
        <ele>457</ele>
        <time>2016-05-06T09:51:58+02:00</time>
      </trkpt>
      <trkpt lat="43.74118" lon="3.50268">
        <ele>453</ele>
        <time>2016-05-06T09:52:20+02:00</time>
      </trkpt>
      <trkpt lat="43.74116" lon="3.50309">
        <ele>450</ele>
        <time>2016-05-06T09:52:53+02:00</time>
      </trkpt>
      <trkpt lat="43.74114" lon="3.50351">
        <ele>447</ele>
        <time>2016-05-06T09:53:25+02:00</time>
      </trkpt>
      <trkpt lat="43.74112" lon="3.50386">
        <ele>444</ele>
        <time>2016-05-06T09:53:50+02:00</time>
      </trkpt>
      <trkpt lat="43.7409" lon="3.50423">
        <ele>440</ele>
        <time>2016-05-06T09:54:22+02:00</time>
      </trkpt>
      <trkpt lat="43.74084" lon="3.50436">
        <ele>439</ele>
        <time>2016-05-06T09:54:31+02:00</time>
      </trkpt>
      <trkpt lat="43.74085" lon="3.50449">
        <ele>439</ele>
        <time>2016-05-06T09:54:39+02:00</time>
      </trkpt>
      <trkpt lat="43.74092" lon="3.50504">
        <ele>439</ele>
        <time>2016-05-06T09:55:13+02:00</time>
      </trkpt>
      <trkpt lat="43.74098" lon="3.50552">
        <ele>436</ele>
        <time>2016-05-06T09:55:45+02:00</time>
      </trkpt>
      <trkpt lat="43.74098" lon="3.50559">
        <ele>435</ele>
        <time>2016-05-06T09:55:50+02:00</time>
      </trkpt>
      <trkpt lat="43.74097" lon="3.50566">
        <ele>435</ele>
        <time>2016-05-06T09:55:54+02:00</time>
      </trkpt>
      <trkpt lat="43.7409" lon="3.5062">
        <ele>433</ele>
        <time>2016-05-06T09:56:28+02:00</time>
      </trkpt>
      <trkpt lat="43.74087" lon="3.50632">
        <ele>433</ele>
        <time>2016-05-06T09:56:36+02:00</time>
      </trkpt>
      <trkpt lat="43.74084" lon="3.50638">
        <ele>432</ele>
        <time>2016-05-06T09:56:41+02:00</time>
      </trkpt>
      <trkpt lat="43.74067" lon="3.5068">
        <ele>430</ele>
        <time>2016-05-06T09:57:11+02:00</time>
      </trkpt>
      <trkpt lat="43.74055" lon="3.50709">
        <ele>429</ele>
        <time>2016-05-06T09:57:37+02:00</time>
      </trkpt>
      <trkpt lat="43.74051" lon="3.50707">
        <ele>428</ele>
        <time>2016-05-06T09:58:30+02:00</time>
      </trkpt>
      <trkpt lat="43.74054" lon="3.5071">
        <ele>429</ele>
        <time>2016-05-06T09:59:08+02:00</time>
      </trkpt>
      <trkpt lat="43.74053" lon="3.50715">
        <ele>428</ele>
        <time>2016-05-06T09:59:43+02:00</time>
      </trkpt>
      <trkpt lat="43.74032" lon="3.50747">
        <ele>426</ele>
        <time>2016-05-06T10:00:14+02:00</time>
      </trkpt>
      <trkpt lat="43.74028" lon="3.50751">
        <ele>425</ele>
        <time>2016-05-06T10:00:20+02:00</time>
      </trkpt>
      <trkpt lat="43.74022" lon="3.50762">
        <ele>425</ele>
        <time>2016-05-06T10:00:31+02:00</time>
      </trkpt>
      <trkpt lat="43.74009" lon="3.50801">
        <ele>424</ele>
        <time>2016-05-06T10:01:01+02:00</time>
      </trkpt>
      <trkpt lat="43.73986" lon="3.50823">
        <ele>424</ele>
        <time>2016-05-06T10:01:25+02:00</time>
      </trkpt>
      <trkpt lat="43.73953" lon="3.50842">
        <ele>424</ele>
        <time>2016-05-06T10:01:57+02:00</time>
      </trkpt>
      <trkpt lat="43.73919" lon="3.50852">
        <ele>424</ele>
        <time>2016-05-06T10:02:30+02:00</time>
      </trkpt>
      <trkpt lat="43.73886" lon="3.50869">
        <ele>425</ele>
        <time>2016-05-06T10:03:03+02:00</time>
      </trkpt>
      <trkpt lat="43.73862" lon="3.50861">
        <ele>426</ele>
        <time>2016-05-06T10:03:26+02:00</time>
      </trkpt>
      <trkpt lat="43.73857" lon="3.50862">
        <ele>426</ele>
        <time>2016-05-06T10:03:31+02:00</time>
      </trkpt>
      <trkpt lat="43.73848" lon="3.5087">
        <ele>427</ele>
        <time>2016-05-06T10:03:41+02:00</time>
      </trkpt>
      <trkpt lat="43.73825" lon="3.50906">
        <ele>429</ele>
        <time>2016-05-06T10:04:14+02:00</time>
      </trkpt>
      <trkpt lat="43.7382" lon="3.50906">
        <ele>430</ele>
        <time>2016-05-06T10:04:17+02:00</time>
      </trkpt>
      <trkpt lat="43.73804" lon="3.50922">
        <ele>434</ele>
        <time>2016-05-06T10:04:37+02:00</time>
      </trkpt>
      <trkpt lat="43.73801" lon="3.50934">
        <ele>434</ele>
        <time>2016-05-06T10:04:47+02:00</time>
      </trkpt>
      <trkpt lat="43.73797" lon="3.50937">
        <ele>435</ele>
        <time>2016-05-06T10:04:51+02:00</time>
      </trkpt>
      <trkpt lat="43.73794" lon="3.50943">
        <ele>435</ele>
        <time>2016-05-06T10:04:57+02:00</time>
      </trkpt>
      <trkpt lat="43.7379" lon="3.50947">
        <ele>436</ele>
        <time>2016-05-06T10:05:02+02:00</time>
      </trkpt>
      <trkpt lat="43.73787" lon="3.50953">
        <ele>437</ele>
        <time>2016-05-06T10:05:08+02:00</time>
      </trkpt>
      <trkpt lat="43.73782" lon="3.50956">
        <ele>438</ele>
        <time>2016-05-06T10:05:13+02:00</time>
      </trkpt>
      <trkpt lat="43.73762" lon="3.50958">
        <ele>442</ele>
        <time>2016-05-06T10:05:34+02:00</time>
      </trkpt>
      <trkpt lat="43.73749" lon="3.5097">
        <ele>445</ele>
        <time>2016-05-06T10:05:48+02:00</time>
      </trkpt>
      <trkpt lat="43.73747" lon="3.50976">
        <ele>445</ele>
        <time>2016-05-06T10:05:53+02:00</time>
      </trkpt>
      <trkpt lat="43.73737" lon="3.51005">
        <ele>444</ele>
        <time>2016-05-06T10:06:23+02:00</time>
      </trkpt>
      <trkpt lat="43.73724" lon="3.51041">
        <ele>443</ele>
        <time>2016-05-06T10:06:55+02:00</time>
      </trkpt>
      <trkpt lat="43.7372" lon="3.51047">
        <ele>443</ele>
        <time>2016-05-06T10:07:00+02:00</time>
      </trkpt>
      <trkpt lat="43.73716" lon="3.51051">
        <ele>443</ele>
        <time>2016-05-06T10:07:05+02:00</time>
      </trkpt>
      <trkpt lat="43.73705" lon="3.51088">
        <ele>445</ele>
        <time>2016-05-06T10:07:36+02:00</time>
      </trkpt>
      <trkpt lat="43.73696" lon="3.51107">
        <ele>448</ele>
        <time>2016-05-06T10:08:02+02:00</time>
      </trkpt>
      <trkpt lat="43.73694" lon="3.51114">
        <ele>448</ele>
        <time>2016-05-06T10:08:07+02:00</time>
      </trkpt>
      <trkpt lat="43.73695" lon="3.5112">
        <ele>449</ele>
        <time>2016-05-06T10:08:13+02:00</time>
      </trkpt>
      <trkpt lat="43.73696" lon="3.51125">
        <ele>449</ele>
        <time>2016-05-06T10:08:21+02:00</time>
      </trkpt>
      <trkpt lat="43.737" lon="3.51128">
        <ele>448</ele>
        <time>2016-05-06T10:08:27+02:00</time>
      </trkpt>
      <trkpt lat="43.73702" lon="3.51132">
        <ele>448</ele>
        <time>2016-05-06T10:08:35+02:00</time>
      </trkpt>
      <trkpt lat="43.73701" lon="3.51139">
        <ele>449</ele>
        <time>2016-05-06T10:08:42+02:00</time>
      </trkpt>
      <trkpt lat="43.73698" lon="3.51144">
        <ele>450</ele>
        <time>2016-05-06T10:08:47+02:00</time>
      </trkpt>
      <trkpt lat="43.73685" lon="3.51153">
        <ele>453</ele>
        <time>2016-05-06T10:08:59+02:00</time>
      </trkpt>
      <trkpt lat="43.73683" lon="3.51159">
        <ele>453</ele>
        <time>2016-05-06T10:09:03+02:00</time>
      </trkpt>
      <trkpt lat="43.73674" lon="3.51167">
        <ele>442</ele>
        <time>2016-05-06T10:09:13+02:00</time>
      </trkpt>
      <trkpt lat="43.73656" lon="3.51199">
        <ele>455</ele>
        <time>2016-05-06T10:09:44+02:00</time>
      </trkpt>
      <trkpt lat="43.73653" lon="3.51205">
        <ele>455</ele>
        <time>2016-05-06T10:09:48+02:00</time>
      </trkpt>
      <trkpt lat="43.73653" lon="3.51212">
        <ele>455</ele>
        <time>2016-05-06T10:09:52+02:00</time>
      </trkpt>
      <trkpt lat="43.73649" lon="3.51226">
        <ele>455</ele>
        <time>2016-05-06T10:10:03+02:00</time>
      </trkpt>
      <trkpt lat="43.73626" lon="3.51263">
        <ele>460</ele>
        <time>2016-05-06T10:10:37+02:00</time>
      </trkpt>
      <trkpt lat="43.73618" lon="3.51272">
        <ele>462</ele>
        <time>2016-05-06T10:10:48+02:00</time>
      </trkpt>
      <trkpt lat="43.73598" lon="3.51301">
        <ele>469</ele>
        <time>2016-05-06T10:11:24+02:00</time>
      </trkpt>
      <trkpt lat="43.73594" lon="3.51335">
        <ele>471</ele>
        <time>2016-05-06T10:11:52+02:00</time>
      </trkpt>
      <trkpt lat="43.73602" lon="3.51374">
        <ele>467</ele>
        <time>2016-05-06T10:12:27+02:00</time>
      </trkpt>
      <trkpt lat="43.73604" lon="3.5138">
        <ele>467</ele>
        <time>2016-05-06T10:12:32+02:00</time>
      </trkpt>
      <trkpt lat="43.73604" lon="3.51385">
        <ele>467</ele>
        <time>2016-05-06T10:12:40+02:00</time>
      </trkpt>
      <trkpt lat="43.73603" lon="3.51391">
        <ele>467</ele>
        <time>2016-05-06T10:12:47+02:00</time>
      </trkpt>
      <trkpt lat="43.73588" lon="3.51415">
        <ele>474</ele>
        <time>2016-05-06T10:13:21+02:00</time>
      </trkpt>
      <trkpt lat="43.73571" lon="3.51444">
        <ele>480</ele>
        <time>2016-05-06T10:13:56+02:00</time>
      </trkpt>
      <trkpt lat="43.73562" lon="3.5145">
        <ele>483</ele>
        <time>2016-05-06T10:14:08+02:00</time>
      </trkpt>
      <trkpt lat="43.73559" lon="3.51455">
        <ele>484</ele>
        <time>2016-05-06T10:14:13+02:00</time>
      </trkpt>
      <trkpt lat="43.73559" lon="3.51476">
        <ele>485</ele>
        <time>2016-05-06T10:14:30+02:00</time>
      </trkpt>
      <trkpt lat="43.73553" lon="3.51487">
        <ele>487</ele>
        <time>2016-05-06T10:14:43+02:00</time>
      </trkpt>
      <trkpt lat="43.73541" lon="3.51505">
        <ele>493</ele>
        <time>2016-05-06T10:16:09+02:00</time>
      </trkpt>
      <trkpt lat="43.73539" lon="3.51511">
        <ele>494</ele>
        <time>2016-05-06T10:16:23+02:00</time>
      </trkpt>
      <trkpt lat="43.73539" lon="3.51519">
        <ele>494</ele>
        <time>2016-05-06T10:16:29+02:00</time>
      </trkpt>
      <trkpt lat="43.73536" lon="3.51525">
        <ele>495</ele>
        <time>2016-05-06T10:16:34+02:00</time>
      </trkpt>
      <trkpt lat="43.73525" lon="3.51539">
        <ele>500</ele>
        <time>2016-05-06T10:16:49+02:00</time>
      </trkpt>
      <trkpt lat="43.73526" lon="3.51545">
        <ele>499</ele>
        <time>2016-05-06T10:16:54+02:00</time>
      </trkpt>
      <trkpt lat="43.73526" lon="3.51579">
        <ele>499</ele>
        <time>2016-05-06T10:17:24+02:00</time>
      </trkpt>
      <trkpt lat="43.73522" lon="3.51582">
        <ele>500</ele>
        <time>2016-05-06T10:17:30+02:00</time>
      </trkpt>
      <trkpt lat="43.73512" lon="3.51588">
        <ele>504</ele>
        <time>2016-05-06T10:17:43+02:00</time>
      </trkpt>
      <trkpt lat="43.7351" lon="3.51595">
        <ele>505</ele>
        <time>2016-05-06T10:17:49+02:00</time>
      </trkpt>
      <trkpt lat="43.73508" lon="3.51601">
        <ele>506</ele>
        <time>2016-05-06T10:17:53+02:00</time>
      </trkpt>
      <trkpt lat="43.73498" lon="3.51607">
        <ele>510</ele>
        <time>2016-05-06T10:18:01+02:00</time>
      </trkpt>
      <trkpt lat="43.73494" lon="3.51612">
        <ele>512</ele>
        <time>2016-05-06T10:18:08+02:00</time>
      </trkpt>
      <trkpt lat="43.73494" lon="3.51618">
        <ele>513</ele>
        <time>2016-05-06T10:18:13+02:00</time>
      </trkpt>
      <trkpt lat="43.73502" lon="3.51642">
        <ele>513</ele>
        <time>2016-05-06T10:18:35+02:00</time>
      </trkpt>
      <trkpt lat="43.73508" lon="3.51652">
        <ele>513</ele>
        <time>2016-05-06T10:18:46+02:00</time>
      </trkpt>
      <trkpt lat="43.73517" lon="3.51658">
        <ele>513</ele>
        <time>2016-05-06T10:18:57+02:00</time>
      </trkpt>
      <trkpt lat="43.73521" lon="3.5167">
        <ele>514</ele>
        <time>2016-05-06T10:19:10+02:00</time>
      </trkpt>
      <trkpt lat="43.73528" lon="3.51702">
        <ele>517</ele>
        <time>2016-05-06T10:19:41+02:00</time>
      </trkpt>
      <trkpt lat="43.73534" lon="3.51734">
        <ele>520</ele>
        <time>2016-05-06T10:20:13+02:00</time>
      </trkpt>
      <trkpt lat="43.73532" lon="3.5174">
        <ele>521</ele>
        <time>2016-05-06T10:20:18+02:00</time>
      </trkpt>
      <trkpt lat="43.73531" lon="3.51767">
        <ele>523</ele>
        <time>2016-05-06T10:20:42+02:00</time>
      </trkpt>
      <trkpt lat="43.73532" lon="3.51774">
        <ele>522</ele>
        <time>2016-05-06T10:20:48+02:00</time>
      </trkpt>
      <trkpt lat="43.73536" lon="3.51779">
        <ele>521</ele>
        <time>2016-05-06T10:20:54+02:00</time>
      </trkpt>
      <trkpt lat="43.73541" lon="3.5178">
        <ele>520</ele>
        <time>2016-05-06T10:21:00+02:00</time>
      </trkpt>
      <trkpt lat="43.73555" lon="3.51774">
        <ele>517</ele>
        <time>2016-05-06T10:21:17+02:00</time>
      </trkpt>
      <trkpt lat="43.73579" lon="3.51753">
        <ele>513</ele>
        <time>2016-05-06T10:21:50+02:00</time>
      </trkpt>
      <trkpt lat="43.73579" lon="3.51759">
        <ele>513</ele>
        <time>2016-05-06T10:21:57+02:00</time>
      </trkpt>
      <trkpt lat="43.73576" lon="3.51764">
        <ele>513</ele>
        <time>2016-05-06T10:22:03+02:00</time>
      </trkpt>
      <trkpt lat="43.73572" lon="3.51769">
        <ele>513</ele>
        <time>2016-05-06T10:22:08+02:00</time>
      </trkpt>
      <trkpt lat="43.73566" lon="3.51788">
        <ele>513</ele>
        <time>2016-05-06T10:22:25+02:00</time>
      </trkpt>
      <trkpt lat="43.73562" lon="3.51821">
        <ele>512</ele>
        <time>2016-05-06T10:22:49+02:00</time>
      </trkpt>
      <trkpt lat="43.73561" lon="3.51828">
        <ele>512</ele>
        <time>2016-05-06T10:22:54+02:00</time>
      </trkpt>
      <trkpt lat="43.73554" lon="3.51868">
        <ele>513</ele>
        <time>2016-05-06T10:23:26+02:00</time>
      </trkpt>
      <trkpt lat="43.73552" lon="3.51881">
        <ele>513</ele>
        <time>2016-05-06T10:23:35+02:00</time>
      </trkpt>
      <trkpt lat="43.73551" lon="3.51888">
        <ele>514</ele>
        <time>2016-05-06T10:23:41+02:00</time>
      </trkpt>
      <trkpt lat="43.73549" lon="3.51893">
        <ele>515</ele>
        <time>2016-05-06T10:23:46+02:00</time>
      </trkpt>
      <trkpt lat="43.73539" lon="3.51932">
        <ele>520</ele>
        <time>2016-05-06T10:24:17+02:00</time>
      </trkpt>
      <trkpt lat="43.7353" lon="3.51971">
        <ele>525</ele>
        <time>2016-05-06T10:24:50+02:00</time>
      </trkpt>
      <trkpt lat="43.7353" lon="3.51978">
        <ele>525</ele>
        <time>2016-05-06T10:24:56+02:00</time>
      </trkpt>
      <trkpt lat="43.73525" lon="3.52017">
        <ele>529</ele>
        <time>2016-05-06T10:25:29+02:00</time>
      </trkpt>
      <trkpt lat="43.73519" lon="3.52041">
        <ele>533</ele>
        <time>2016-05-06T10:25:51+02:00</time>
      </trkpt>
      <trkpt lat="43.73517" lon="3.52047">
        <ele>534</ele>
        <time>2016-05-06T10:25:57+02:00</time>
      </trkpt>
      <trkpt lat="43.73513" lon="3.5205">
        <ele>537</ele>
        <time>2016-05-06T10:26:03+02:00</time>
      </trkpt>
      <trkpt lat="43.73509" lon="3.52056">
        <ele>539</ele>
        <time>2016-05-06T10:26:09+02:00</time>
      </trkpt>
      <trkpt lat="43.73508" lon="3.52062">
        <ele>539</ele>
        <time>2016-05-06T10:26:14+02:00</time>
      </trkpt>
      <trkpt lat="43.73513" lon="3.52101">
        <ele>538</ele>
        <time>2016-05-06T10:26:45+02:00</time>
      </trkpt>
      <trkpt lat="43.73524" lon="3.52139">
        <ele>534</ele>
        <time>2016-05-06T10:27:17+02:00</time>
      </trkpt>
      <trkpt lat="43.7354" lon="3.52164">
        <ele>529</ele>
        <time>2016-05-06T10:27:42+02:00</time>
      </trkpt>
      <trkpt lat="43.73542" lon="3.52171">
        <ele>528</ele>
        <time>2016-05-06T10:27:48+02:00</time>
      </trkpt>
      <trkpt lat="43.73542" lon="3.52178">
        <ele>528</ele>
        <time>2016-05-06T10:27:54+02:00</time>
      </trkpt>
      <trkpt lat="43.7354" lon="3.52183">
        <ele>528</ele>
        <time>2016-05-06T10:28:00+02:00</time>
      </trkpt>
      <trkpt lat="43.7353" lon="3.52188">
        <ele>532</ele>
        <time>2016-05-06T10:28:12+02:00</time>
      </trkpt>
      <trkpt lat="43.73521" lon="3.52194">
        <ele>535</ele>
        <time>2016-05-06T10:28:23+02:00</time>
      </trkpt>
      <trkpt lat="43.735" lon="3.52221">
        <ele>542</ele>
        <time>2016-05-06T10:28:58+02:00</time>
      </trkpt>
      <trkpt lat="43.73497" lon="3.52227">
        <ele>542</ele>
        <time>2016-05-06T10:29:03+02:00</time>
      </trkpt>
      <trkpt lat="43.73488" lon="3.52265">
        <ele>542</ele>
        <time>2016-05-06T10:29:36+02:00</time>
      </trkpt>
      <trkpt lat="43.7347" lon="3.52297">
        <ele>544</ele>
        <time>2016-05-06T10:30:09+02:00</time>
      </trkpt>
      <trkpt lat="43.73452" lon="3.52329">
        <ele>547</ele>
        <time>2016-05-06T10:30:43+02:00</time>
      </trkpt>
      <trkpt lat="43.73434" lon="3.52363">
        <ele>553</ele>
        <time>2016-05-06T10:31:17+02:00</time>
      </trkpt>
      <trkpt lat="43.73415" lon="3.52386">
        <ele>557</ele>
        <time>2016-05-06T10:31:48+02:00</time>
      </trkpt>
      <trkpt lat="43.734" lon="3.52403">
        <ele>557</ele>
        <time>2016-05-06T10:32:18+02:00</time>
      </trkpt>
      <trkpt lat="43.73391" lon="3.52416">
        <ele>556</ele>
        <time>2016-05-06T10:44:00+02:00</time>
      </trkpt>
      <trkpt lat="43.73367" lon="3.52447">
        <ele>554</ele>
        <time>2016-05-06T10:44:34+02:00</time>
      </trkpt>
      <trkpt lat="43.73342" lon="3.52488">
        <ele>554</ele>
        <time>2016-05-06T10:45:20+02:00</time>
      </trkpt>
      <trkpt lat="43.7333" lon="3.52501">
        <ele>554</ele>
        <time>2016-05-06T10:45:35+02:00</time>
      </trkpt>
      <trkpt lat="43.73327" lon="3.52507">
        <ele>554</ele>
        <time>2016-05-06T10:45:40+02:00</time>
      </trkpt>
      <trkpt lat="43.73311" lon="3.52535">
        <ele>552</ele>
        <time>2016-05-06T10:46:15+02:00</time>
      </trkpt>
      <trkpt lat="43.73303" lon="3.52556">
        <ele>551</ele>
        <time>2016-05-06T10:46:21+02:00</time>
      </trkpt>
      <trkpt lat="43.73298" lon="3.52572">
        <ele>551</ele>
        <time>2016-05-06T10:46:40+02:00</time>
      </trkpt>
      <trkpt lat="43.73296" lon="3.52588">
        <ele>550</ele>
        <time>2016-05-06T10:46:45+02:00</time>
      </trkpt>
      <trkpt lat="43.73294" lon="3.52591">
        <ele>550</ele>
        <time>2016-05-06T10:46:54+02:00</time>
      </trkpt>
      <trkpt lat="43.73292" lon="3.52594">
        <ele>550</ele>
        <time>2016-05-06T10:48:39+02:00</time>
      </trkpt>
      <trkpt lat="43.73289" lon="3.52604">
        <ele>549</ele>
        <time>2016-05-06T10:48:56+02:00</time>
      </trkpt>
      <trkpt lat="43.73286" lon="3.52628">
        <ele>547</ele>
        <time>2016-05-06T10:49:17+02:00</time>
      </trkpt>
      <trkpt lat="43.73275" lon="3.52653">
        <ele>545</ele>
        <time>2016-05-06T10:49:37+02:00</time>
      </trkpt>
      <trkpt lat="43.73273" lon="3.52659">
        <ele>544</ele>
        <time>2016-05-06T10:49:41+02:00</time>
      </trkpt>
      <trkpt lat="43.73268" lon="3.52671">
        <ele>544</ele>
        <time>2016-05-06T10:49:50+02:00</time>
      </trkpt>
      <trkpt lat="43.73263" lon="3.5269">
        <ele>543</ele>
        <time>2016-05-06T10:50:04+02:00</time>
      </trkpt>
      <trkpt lat="43.73265" lon="3.52697">
        <ele>542</ele>
        <time>2016-05-06T10:50:10+02:00</time>
      </trkpt>
      <trkpt lat="43.73263" lon="3.52703">
        <ele>542</ele>
        <time>2016-05-06T10:50:14+02:00</time>
      </trkpt>
      <trkpt lat="43.73258" lon="3.52716">
        <ele>542</ele>
        <time>2016-05-06T10:50:22+02:00</time>
      </trkpt>
      <trkpt lat="43.73261" lon="3.52721">
        <ele>541</ele>
        <time>2016-05-06T10:50:27+02:00</time>
      </trkpt>
      <trkpt lat="43.73265" lon="3.52724">
        <ele>541</ele>
        <time>2016-05-06T10:50:33+02:00</time>
      </trkpt>
      <trkpt lat="43.7327" lon="3.52726">
        <ele>541</ele>
        <time>2016-05-06T10:50:39+02:00</time>
      </trkpt>
      <trkpt lat="43.73274" lon="3.52729">
        <ele>541</ele>
        <time>2016-05-06T10:50:45+02:00</time>
      </trkpt>
      <trkpt lat="43.73279" lon="3.52729">
        <ele>541</ele>
        <time>2016-05-06T10:50:51+02:00</time>
      </trkpt>
      <trkpt lat="43.73283" lon="3.52728">
        <ele>541</ele>
        <time>2016-05-06T10:50:56+02:00</time>
      </trkpt>
      <trkpt lat="43.73289" lon="3.52728">
        <ele>541</ele>
        <time>2016-05-06T10:51:02+02:00</time>
      </trkpt>
      <trkpt lat="43.73294" lon="3.52727">
        <ele>541</ele>
        <time>2016-05-06T10:51:07+02:00</time>
      </trkpt>
      <trkpt lat="43.73322" lon="3.52736">
        <ele>540</ele>
        <time>2016-05-06T10:51:39+02:00</time>
      </trkpt>
      <trkpt lat="43.73346" lon="3.52746">
        <ele>539</ele>
        <time>2016-05-06T10:52:04+02:00</time>
      </trkpt>
      <trkpt lat="43.73377" lon="3.52759">
        <ele>539</ele>
        <time>2016-05-06T10:52:39+02:00</time>
      </trkpt>
      <trkpt lat="43.73406" lon="3.52767">
        <ele>540</ele>
        <time>2016-05-06T10:53:10+02:00</time>
      </trkpt>
      <trkpt lat="43.73438" lon="3.52779">
        <ele>540</ele>
        <time>2016-05-06T10:53:41+02:00</time>
      </trkpt>
      <trkpt lat="43.73467" lon="3.52787">
        <ele>541</ele>
        <time>2016-05-06T10:54:13+02:00</time>
      </trkpt>
      <trkpt lat="43.73476" lon="3.52795">
        <ele>541</ele>
        <time>2016-05-06T10:54:23+02:00</time>
      </trkpt>
      <trkpt lat="43.73503" lon="3.52809">
        <ele>541</ele>
        <time>2016-05-06T10:54:49+02:00</time>
      </trkpt>
      <trkpt lat="43.73509" lon="3.52818">
        <ele>539</ele>
        <time>2016-05-06T10:55:00+02:00</time>
      </trkpt>
      <trkpt lat="43.7351" lon="3.52831">
        <ele>539</ele>
        <time>2016-05-06T10:55:10+02:00</time>
      </trkpt>
      <trkpt lat="43.73513" lon="3.52859">
        <ele>530</ele>
        <time>2016-05-06T10:55:42+02:00</time>
      </trkpt>
      <trkpt lat="43.73511" lon="3.52864">
        <ele>528</ele>
        <time>2016-05-06T10:55:50+02:00</time>
      </trkpt>
      <trkpt lat="43.73512" lon="3.52884">
        <ele>521</ele>
        <time>2016-05-06T10:56:15+02:00</time>
      </trkpt>
      <trkpt lat="43.73509" lon="3.52888">
        <ele>521</ele>
        <time>2016-05-06T11:00:20+02:00</time>
      </trkpt>
      <trkpt lat="43.73504" lon="3.52886">
        <ele>523</ele>
        <time>2016-05-06T11:00:26+02:00</time>
      </trkpt>
      <trkpt lat="43.73489" lon="3.5289">
        <ele>524</ele>
        <time>2016-05-06T11:00:47+02:00</time>
      </trkpt>
      <trkpt lat="43.73463" lon="3.52914">
        <ele>520</ele>
        <time>2016-05-06T11:01:21+02:00</time>
      </trkpt>
      <trkpt lat="43.73444" lon="3.52944">
        <ele>515</ele>
        <time>2016-05-06T11:01:55+02:00</time>
      </trkpt>
      <trkpt lat="43.73441" lon="3.52948">
        <ele>515</ele>
        <time>2016-05-06T11:02:01+02:00</time>
      </trkpt>
      <trkpt lat="43.73435" lon="3.52958">
        <ele>514</ele>
        <time>2016-05-06T11:02:13+02:00</time>
      </trkpt>
      <trkpt lat="43.7343" lon="3.5297">
        <ele>513</ele>
        <time>2016-05-06T11:02:28+02:00</time>
      </trkpt>
      <trkpt lat="43.73429" lon="3.52977">
        <ele>511</ele>
        <time>2016-05-06T11:02:34+02:00</time>
      </trkpt>
      <trkpt lat="43.73425" lon="3.52996">
        <ele>509</ele>
        <time>2016-05-06T11:02:52+02:00</time>
      </trkpt>
      <trkpt lat="43.73426" lon="3.53001">
        <ele>507</ele>
        <time>2016-05-06T11:03:01+02:00</time>
      </trkpt>
      <trkpt lat="43.73428" lon="3.53006">
        <ele>506</ele>
        <time>2016-05-06T11:03:27+02:00</time>
      </trkpt>
      <trkpt lat="43.73425" lon="3.53009">
        <ele>506</ele>
        <time>2016-05-06T11:03:39+02:00</time>
      </trkpt>
      <trkpt lat="43.73425" lon="3.53013">
        <ele>505</ele>
        <time>2016-05-06T11:03:52+02:00</time>
      </trkpt>
      <trkpt lat="43.73422" lon="3.53013">
        <ele>507</ele>
        <time>2016-05-06T11:04:45+02:00</time>
      </trkpt>
      <trkpt lat="43.73421" lon="3.53007">
        <ele>508</ele>
        <time>2016-05-06T11:04:53+02:00</time>
      </trkpt>
      <trkpt lat="43.73419" lon="3.53">
        <ele>510</ele>
        <time>2016-05-06T11:04:59+02:00</time>
      </trkpt>
      <trkpt lat="43.73414" lon="3.52997">
        <ele>511</ele>
        <time>2016-05-06T11:05:05+02:00</time>
      </trkpt>
      <trkpt lat="43.7341" lon="3.52991">
        <ele>512</ele>
        <time>2016-05-06T11:05:09+02:00</time>
      </trkpt>
      <trkpt lat="43.73407" lon="3.52987">
        <ele>512</ele>
        <time>2016-05-06T11:05:13+02:00</time>
      </trkpt>
      <trkpt lat="43.73396" lon="3.52975">
        <ele>512</ele>
        <time>2016-05-06T11:05:30+02:00</time>
      </trkpt>
      <trkpt lat="43.73392" lon="3.5297">
        <ele>513</ele>
        <time>2016-05-06T11:05:36+02:00</time>
      </trkpt>
      <trkpt lat="43.7339" lon="3.52963">
        <ele>514</ele>
        <time>2016-05-06T11:05:42+02:00</time>
      </trkpt>
      <trkpt lat="43.73387" lon="3.52958">
        <ele>514</ele>
        <time>2016-05-06T11:05:48+02:00</time>
      </trkpt>
      <trkpt lat="43.73382" lon="3.52958">
        <ele>514</ele>
        <time>2016-05-06T11:05:53+02:00</time>
      </trkpt>
      <trkpt lat="43.73378" lon="3.5296">
        <ele>513</ele>
        <time>2016-05-06T11:06:00+02:00</time>
      </trkpt>
      <trkpt lat="43.73374" lon="3.52965">
        <ele>511</ele>
        <time>2016-05-06T11:06:07+02:00</time>
      </trkpt>
      <trkpt lat="43.73374" lon="3.52971">
        <ele>510</ele>
        <time>2016-05-06T11:06:14+02:00</time>
      </trkpt>
      <trkpt lat="43.73375" lon="3.52992">
        <ele>506</ele>
        <time>2016-05-06T11:06:33+02:00</time>
      </trkpt>
      <trkpt lat="43.73374" lon="3.52998">
        <ele>505</ele>
        <time>2016-05-06T11:06:39+02:00</time>
      </trkpt>
      <trkpt lat="43.73377" lon="3.53017">
        <ele>502</ele>
        <time>2016-05-06T11:07:01+02:00</time>
      </trkpt>
      <trkpt lat="43.73382" lon="3.53029">
        <ele>501</ele>
        <time>2016-05-06T11:07:13+02:00</time>
      </trkpt>
      <trkpt lat="43.7338" lon="3.53034">
        <ele>499</ele>
        <time>2016-05-06T11:07:19+02:00</time>
      </trkpt>
      <trkpt lat="43.73375" lon="3.53033">
        <ele>499</ele>
        <time>2016-05-06T11:07:25+02:00</time>
      </trkpt>
      <trkpt lat="43.73367" lon="3.53026">
        <ele>499</ele>
        <time>2016-05-06T11:07:38+02:00</time>
      </trkpt>
      <trkpt lat="43.73361" lon="3.53027">
        <ele>498</ele>
        <time>2016-05-06T11:07:51+02:00</time>
      </trkpt>
      <trkpt lat="43.73357" lon="3.53024">
        <ele>498</ele>
        <time>2016-05-06T11:07:56+02:00</time>
      </trkpt>
      <trkpt lat="43.7334" lon="3.53009">
        <ele>498</ele>
        <time>2016-05-06T11:08:17+02:00</time>
      </trkpt>
      <trkpt lat="43.73336" lon="3.53011">
        <ele>497</ele>
        <time>2016-05-06T11:08:23+02:00</time>
      </trkpt>
      <trkpt lat="43.73326" lon="3.53009">
        <ele>497</ele>
        <time>2016-05-06T11:08:37+02:00</time>
      </trkpt>
      <trkpt lat="43.73317" lon="3.53003">
        <ele>498</ele>
        <time>2016-05-06T11:08:50+02:00</time>
      </trkpt>
      <trkpt lat="43.73318" lon="3.5301">
        <ele>497</ele>
        <time>2016-05-06T11:10:45+02:00</time>
      </trkpt>
      <trkpt lat="43.73322" lon="3.53014">
        <ele>496</ele>
        <time>2016-05-06T11:10:50+02:00</time>
      </trkpt>
      <trkpt lat="43.73325" lon="3.53018">
        <ele>495</ele>
        <time>2016-05-06T11:10:56+02:00</time>
      </trkpt>
      <trkpt lat="43.73347" lon="3.5305">
        <ele>492</ele>
        <time>2016-05-06T11:11:30+02:00</time>
      </trkpt>
      <trkpt lat="43.73351" lon="3.53054">
        <ele>492</ele>
        <time>2016-05-06T11:11:35+02:00</time>
      </trkpt>
      <trkpt lat="43.73363" lon="3.53067">
        <ele>492</ele>
        <time>2016-05-06T11:11:48+02:00</time>
      </trkpt>
      <trkpt lat="43.73366" lon="3.53072">
        <ele>491</ele>
        <time>2016-05-06T11:11:54+02:00</time>
      </trkpt>
      <trkpt lat="43.73387" lon="3.53116">
        <ele>491</ele>
        <time>2016-05-06T11:12:31+02:00</time>
      </trkpt>
      <trkpt lat="43.73403" lon="3.53149">
        <ele>492</ele>
        <time>2016-05-06T11:12:56+02:00</time>
      </trkpt>
      <trkpt lat="43.73406" lon="3.5317">
        <ele>491</ele>
        <time>2016-05-06T11:13:12+02:00</time>
      </trkpt>
      <trkpt lat="43.73398" lon="3.53195">
        <ele>492</ele>
        <time>2016-05-06T11:13:29+02:00</time>
      </trkpt>
      <trkpt lat="43.73372" lon="3.53228">
        <ele>488</ele>
        <time>2016-05-06T11:14:00+02:00</time>
      </trkpt>
      <trkpt lat="43.73365" lon="3.53236">
        <ele>487</ele>
        <time>2016-05-06T11:14:12+02:00</time>
      </trkpt>
      <trkpt lat="43.73362" lon="3.53242">
        <ele>487</ele>
        <time>2016-05-06T11:14:17+02:00</time>
      </trkpt>
      <trkpt lat="43.7334" lon="3.53269">
        <ele>482</ele>
        <time>2016-05-06T11:14:47+02:00</time>
      </trkpt>
      <trkpt lat="43.73335" lon="3.53281">
        <ele>481</ele>
        <time>2016-05-06T11:14:56+02:00</time>
      </trkpt>
      <trkpt lat="43.73337" lon="3.53294">
        <ele>481</ele>
        <time>2016-05-06T11:15:06+02:00</time>
      </trkpt>
      <trkpt lat="43.73344" lon="3.53303">
        <ele>482</ele>
        <time>2016-05-06T11:15:13+02:00</time>
      </trkpt>
      <trkpt lat="43.73347" lon="3.5331">
        <ele>483</ele>
        <time>2016-05-06T11:15:18+02:00</time>
      </trkpt>
      <trkpt lat="43.73365" lon="3.53353">
        <ele>484</ele>
        <time>2016-05-06T11:15:49+02:00</time>
      </trkpt>
      <trkpt lat="43.73372" lon="3.53394">
        <ele>483</ele>
        <time>2016-05-06T11:16:19+02:00</time>
      </trkpt>
      <trkpt lat="43.73356" lon="3.53437">
        <ele>475</ele>
        <time>2016-05-06T11:16:50+02:00</time>
      </trkpt>
      <trkpt lat="43.73349" lon="3.53456">
        <ele>473</ele>
        <time>2016-05-06T11:17:07+02:00</time>
      </trkpt>
      <trkpt lat="43.73339" lon="3.53494">
        <ele>469</ele>
        <time>2016-05-06T11:17:38+02:00</time>
      </trkpt>
      <trkpt lat="43.73337" lon="3.53501">
        <ele>468</ele>
        <time>2016-05-06T11:17:45+02:00</time>
      </trkpt>
      <trkpt lat="43.73339" lon="3.53505">
        <ele>467</ele>
        <time>2016-05-06T11:18:03+02:00</time>
      </trkpt>
      <trkpt lat="43.73352" lon="3.53496">
        <ele>470</ele>
        <time>2016-05-06T11:18:24+02:00</time>
      </trkpt>
      <trkpt lat="43.73357" lon="3.53497">
        <ele>471</ele>
        <time>2016-05-06T11:18:30+02:00</time>
      </trkpt>
      <trkpt lat="43.73362" lon="3.535">
        <ele>471</ele>
        <time>2016-05-06T11:18:37+02:00</time>
      </trkpt>
      <trkpt lat="43.73367" lon="3.53499">
        <ele>472</ele>
        <time>2016-05-06T11:18:43+02:00</time>
      </trkpt>
      <trkpt lat="43.7337" lon="3.53502">
        <ele>471</ele>
        <time>2016-05-06T11:18:52+02:00</time>
      </trkpt>
      <trkpt lat="43.73375" lon="3.53504">
        <ele>471</ele>
        <time>2016-05-06T11:19:00+02:00</time>
      </trkpt>
      <trkpt lat="43.73379" lon="3.53507">
        <ele>470</ele>
        <time>2016-05-06T11:19:06+02:00</time>
      </trkpt>
      <trkpt lat="43.73399" lon="3.53511">
        <ele>471</ele>
        <time>2016-05-06T11:19:38+02:00</time>
      </trkpt>
      <trkpt lat="43.73408" lon="3.53517">
        <ele>468</ele>
        <time>2016-05-06T11:19:48+02:00</time>
      </trkpt>
      <trkpt lat="43.7341" lon="3.53522">
        <ele>466</ele>
        <time>2016-05-06T11:19:52+02:00</time>
      </trkpt>
      <trkpt lat="43.73409" lon="3.53525">
        <ele>465</ele>
        <time>2016-05-06T11:20:15+02:00</time>
      </trkpt>
      <trkpt lat="43.73404" lon="3.53526">
        <ele>464</ele>
        <time>2016-05-06T11:20:22+02:00</time>
      </trkpt>
      <trkpt lat="43.73378" lon="3.53528">
        <ele>462</ele>
        <time>2016-05-06T11:20:55+02:00</time>
      </trkpt>
      <trkpt lat="43.73369" lon="3.5353">
        <ele>461</ele>
        <time>2016-05-06T11:21:05+02:00</time>
      </trkpt>
      <trkpt lat="43.73372" lon="3.5354">
        <ele>458</ele>
        <time>2016-05-06T11:21:40+02:00</time>
      </trkpt>
      <trkpt lat="43.73382" lon="3.53544">
        <ele>456</ele>
        <time>2016-05-06T11:21:58+02:00</time>
      </trkpt>
      <trkpt lat="43.73393" lon="3.53545">
        <ele>456</ele>
        <time>2016-05-06T11:22:24+02:00</time>
      </trkpt>
      <trkpt lat="43.73388" lon="3.53549">
        <ele>454</ele>
        <time>2016-05-06T11:22:35+02:00</time>
      </trkpt>
      <trkpt lat="43.73365" lon="3.5356">
        <ele>451</ele>
        <time>2016-05-06T11:23:11+02:00</time>
      </trkpt>
      <trkpt lat="43.7336" lon="3.53561">
        <ele>451</ele>
        <time>2016-05-06T11:23:18+02:00</time>
      </trkpt>
      <trkpt lat="43.73333" lon="3.53593">
        <ele>442</ele>
        <time>2016-05-06T11:24:07+02:00</time>
      </trkpt>
      <trkpt lat="43.73328" lon="3.53603">
        <ele>439</ele>
        <time>2016-05-06T11:24:17+02:00</time>
      </trkpt>
      <trkpt lat="43.73334" lon="3.53603">
        <ele>437</ele>
        <time>2016-05-06T11:24:51+02:00</time>
      </trkpt>
      <trkpt lat="43.73342" lon="3.53598">
        <ele>438</ele>
        <time>2016-05-06T11:25:07+02:00</time>
      </trkpt>
      <trkpt lat="43.7337" lon="3.53596">
        <ele>436</ele>
        <time>2016-05-06T11:25:48+02:00</time>
      </trkpt>
      <trkpt lat="43.73379" lon="3.53598">
        <ele>434</ele>
        <time>2016-05-06T11:25:59+02:00</time>
      </trkpt>
      <trkpt lat="43.73401" lon="3.536">
        <ele>431</ele>
        <time>2016-05-06T11:26:32+02:00</time>
      </trkpt>
      <trkpt lat="43.73423" lon="3.53617">
        <ele>421</ele>
        <time>2016-05-06T11:27:05+02:00</time>
      </trkpt>
      <trkpt lat="43.73424" lon="3.53624">
        <ele>418</ele>
        <time>2016-05-06T11:27:13+02:00</time>
      </trkpt>
      <trkpt lat="43.73428" lon="3.53627">
        <ele>416</ele>
        <time>2016-05-06T11:27:21+02:00</time>
      </trkpt>
      <trkpt lat="43.73447" lon="3.53646">
        <ele>409</ele>
        <time>2016-05-06T11:27:58+02:00</time>
      </trkpt>
      <trkpt lat="43.73466" lon="3.53666">
        <ele>401</ele>
        <time>2016-05-06T11:28:28+02:00</time>
      </trkpt>
      <trkpt lat="43.73471" lon="3.53667">
        <ele>401</ele>
        <time>2016-05-06T11:28:34+02:00</time>
      </trkpt>
      <trkpt lat="43.73483" lon="3.53678">
        <ele>398</ele>
        <time>2016-05-06T11:28:53+02:00</time>
      </trkpt>
      <trkpt lat="43.73488" lon="3.53679">
        <ele>398</ele>
        <time>2016-05-06T11:28:59+02:00</time>
      </trkpt>
      <trkpt lat="43.73511" lon="3.53705">
        <ele>382</ele>
        <time>2016-05-06T11:29:34+02:00</time>
      </trkpt>
      <trkpt lat="43.73522" lon="3.53706">
        <ele>376</ele>
        <time>2016-05-06T11:29:46+02:00</time>
      </trkpt>
      <trkpt lat="43.73545" lon="3.53717">
        <ele>362</ele>
        <time>2016-05-06T11:30:16+02:00</time>
      </trkpt>
      <trkpt lat="43.73549" lon="3.53719">
        <ele>360</ele>
        <time>2016-05-06T11:30:22+02:00</time>
      </trkpt>
      <trkpt lat="43.7357" lon="3.53746">
        <ele>353</ele>
        <time>2016-05-06T11:30:58+02:00</time>
      </trkpt>
      <trkpt lat="43.73575" lon="3.53749">
        <ele>352</ele>
        <time>2016-05-06T11:31:05+02:00</time>
      </trkpt>
      <trkpt lat="43.73579" lon="3.53749">
        <ele>351</ele>
        <time>2016-05-06T11:31:11+02:00</time>
      </trkpt>
      <trkpt lat="43.73582" lon="3.53747">
        <ele>350</ele>
        <time>2016-05-06T11:31:24+02:00</time>
      </trkpt>
      <trkpt lat="43.7359" lon="3.53745">
        <ele>340</ele>
        <time>2016-05-06T11:31:55+02:00</time>
      </trkpt>
      <trkpt lat="43.73588" lon="3.53749">
        <ele>343</ele>
        <time>2016-05-06T11:35:22+02:00</time>
      </trkpt>
      <trkpt lat="43.73585" lon="3.53755">
        <ele>347</ele>
        <time>2016-05-06T11:35:31+02:00</time>
      </trkpt>
      <trkpt lat="43.73587" lon="3.53758">
        <ele>345</ele>
        <time>2016-05-06T11:35:43+02:00</time>
      </trkpt>
      <trkpt lat="43.7358" lon="3.53761">
        <ele>350</ele>
        <time>2016-05-06T11:36:01+02:00</time>
      </trkpt>
      <trkpt lat="43.73557" lon="3.53759">
        <ele>353</ele>
        <time>2016-05-06T11:36:34+02:00</time>
      </trkpt>
      <trkpt lat="43.73548" lon="3.53755">
        <ele>356</ele>
        <time>2016-05-06T11:36:45+02:00</time>
      </trkpt>
      <trkpt lat="43.73514" lon="3.53757">
        <ele>361</ele>
        <time>2016-05-06T11:37:23+02:00</time>
      </trkpt>
      <trkpt lat="43.7349" lon="3.53747">
        <ele>368</ele>
        <time>2016-05-06T11:37:58+02:00</time>
      </trkpt>
      <trkpt lat="43.73481" lon="3.53742">
        <ele>369</ele>
        <time>2016-05-06T11:38:10+02:00</time>
      </trkpt>
      <trkpt lat="43.73466" lon="3.53747">
        <ele>365</ele>
        <time>2016-05-06T11:38:52+02:00</time>
      </trkpt>
      <trkpt lat="43.73439" lon="3.53735">
        <ele>366</ele>
        <time>2016-05-06T11:39:22+02:00</time>
      </trkpt>
      <trkpt lat="43.73411" lon="3.53736">
        <ele>364</ele>
        <time>2016-05-06T11:40:01+02:00</time>
      </trkpt>
      <trkpt lat="43.73403" lon="3.53744">
        <ele>362</ele>
        <time>2016-05-06T11:40:12+02:00</time>
      </trkpt>
      <trkpt lat="43.73377" lon="3.53761">
        <ele>363</ele>
        <time>2016-05-06T11:40:44+02:00</time>
      </trkpt>
      <trkpt lat="43.73354" lon="3.53785">
        <ele>362</ele>
        <time>2016-05-06T11:41:22+02:00</time>
      </trkpt>
      <trkpt lat="43.73344" lon="3.53806">
        <ele>359</ele>
        <time>2016-05-06T11:41:43+02:00</time>
      </trkpt>
      <trkpt lat="43.73347" lon="3.53818">
        <ele>353</ele>
        <time>2016-05-06T11:41:53+02:00</time>
      </trkpt>
      <trkpt lat="43.73347" lon="3.53856">
        <ele>345</ele>
        <time>2016-05-06T11:42:33+02:00</time>
      </trkpt>
      <trkpt lat="43.73351" lon="3.53867">
        <ele>340</ele>
        <time>2016-05-06T11:42:47+02:00</time>
      </trkpt>
      <trkpt lat="43.73351" lon="3.53906">
        <ele>333</ele>
        <time>2016-05-06T11:43:27+02:00</time>
      </trkpt>
      <trkpt lat="43.73357" lon="3.53929">
        <ele>326</ele>
        <time>2016-05-06T11:43:56+02:00</time>
      </trkpt>
      <trkpt lat="43.73358" lon="3.53925">
        <ele>326</ele>
        <time>2016-05-06T11:44:22+02:00</time>
      </trkpt>
      <trkpt lat="43.73366" lon="3.53903">
        <ele>324</ele>
        <time>2016-05-06T11:44:46+02:00</time>
      </trkpt>
      <trkpt lat="43.73374" lon="3.53901">
        <ele>319</ele>
        <time>2016-05-06T11:45:28+02:00</time>
      </trkpt>
      <trkpt lat="43.73373" lon="3.53914">
        <ele>317</ele>
        <time>2016-05-06T11:45:39+02:00</time>
      </trkpt>
      <trkpt lat="43.73371" lon="3.53943">
        <ele>317</ele>
        <time>2016-05-06T11:46:13+02:00</time>
      </trkpt>
      <trkpt lat="43.73381" lon="3.5398">
        <ele>309</ele>
        <time>2016-05-06T11:46:49+02:00</time>
      </trkpt>
      <trkpt lat="43.73389" lon="3.54018">
        <ele>305</ele>
        <time>2016-05-06T11:47:27+02:00</time>
      </trkpt>
      <trkpt lat="43.73391" lon="3.54031">
        <ele>305</ele>
        <time>2016-05-06T11:47:41+02:00</time>
      </trkpt>
      <trkpt lat="43.73396" lon="3.54042">
        <ele>302</ele>
        <time>2016-05-06T11:47:51+02:00</time>
      </trkpt>
      <trkpt lat="43.73399" lon="3.54054">
        <ele>301</ele>
        <time>2016-05-06T11:48:06+02:00</time>
      </trkpt>
      <trkpt lat="43.73403" lon="3.54066">
        <ele>299</ele>
        <time>2016-05-06T11:48:15+02:00</time>
      </trkpt>
      <trkpt lat="43.73413" lon="3.54102">
        <ele>296</ele>
        <time>2016-05-06T11:48:51+02:00</time>
      </trkpt>
      <trkpt lat="43.73418" lon="3.54112">
        <ele>293</ele>
        <time>2016-05-06T11:49:03+02:00</time>
      </trkpt>
      <trkpt lat="43.73419" lon="3.54109">
        <ele>292</ele>
        <time>2016-05-06T11:49:24+02:00</time>
      </trkpt>
      <trkpt lat="43.73416" lon="3.54104">
        <ele>293</ele>
        <time>2016-05-06T11:49:28+02:00</time>
      </trkpt>
      <trkpt lat="43.73416" lon="3.54096">
        <ele>293</ele>
        <time>2016-05-06T11:49:33+02:00</time>
      </trkpt>
      <trkpt lat="43.73418" lon="3.5409">
        <ele>291</ele>
        <time>2016-05-06T11:49:38+02:00</time>
      </trkpt>
      <trkpt lat="43.73417" lon="3.54043">
        <ele>287</ele>
        <time>2016-05-06T11:50:12+02:00</time>
      </trkpt>
      <trkpt lat="43.73419" lon="3.54036">
        <ele>286</ele>
        <time>2016-05-06T11:50:16+02:00</time>
      </trkpt>
      <trkpt lat="43.73416" lon="3.54012">
        <ele>286</ele>
        <time>2016-05-06T11:50:34+02:00</time>
      </trkpt>
      <trkpt lat="43.73417" lon="3.54005">
        <ele>284</ele>
        <time>2016-05-06T11:50:39+02:00</time>
      </trkpt>
      <trkpt lat="43.73416" lon="3.53998">
        <ele>285</ele>
        <time>2016-05-06T11:50:44+02:00</time>
      </trkpt>
      <trkpt lat="43.73413" lon="3.53979">
        <ele>287</ele>
        <time>2016-05-06T11:50:59+02:00</time>
      </trkpt>
      <trkpt lat="43.73418" lon="3.53982">
        <ele>284</ele>
        <time>2016-05-06T11:51:06+02:00</time>
      </trkpt>
      <trkpt lat="43.73422" lon="3.53984">
        <ele>282</ele>
        <time>2016-05-06T11:51:11+02:00</time>
      </trkpt>
      <trkpt lat="43.73424" lon="3.53991">
        <ele>281</ele>
        <time>2016-05-06T11:51:16+02:00</time>
      </trkpt>
      <trkpt lat="43.73435" lon="3.54028">
        <ele>276</ele>
        <time>2016-05-06T11:51:51+02:00</time>
      </trkpt>
      <trkpt lat="43.73436" lon="3.54041">
        <ele>277</ele>
        <time>2016-05-06T11:52:00+02:00</time>
      </trkpt>
      <trkpt lat="43.73443" lon="3.54079">
        <ele>275</ele>
        <time>2016-05-06T11:52:36+02:00</time>
      </trkpt>
      <trkpt lat="43.73453" lon="3.54115">
        <ele>272</ele>
        <time>2016-05-06T11:53:11+02:00</time>
      </trkpt>
      <trkpt lat="43.73454" lon="3.54127">
        <ele>273</ele>
        <time>2016-05-06T11:53:22+02:00</time>
      </trkpt>
      <trkpt lat="43.73457" lon="3.5414">
        <ele>272</ele>
        <time>2016-05-06T11:53:33+02:00</time>
      </trkpt>
      <trkpt lat="43.73474" lon="3.54172">
        <ele>263</ele>
        <time>2016-05-06T11:54:06+02:00</time>
      </trkpt>
      <trkpt lat="43.73479" lon="3.54183">
        <ele>261</ele>
        <time>2016-05-06T11:54:16+02:00</time>
      </trkpt>
      <trkpt lat="43.73485" lon="3.54208">
        <ele>258</ele>
        <time>2016-05-06T11:54:40+02:00</time>
      </trkpt>
      <trkpt lat="43.73486" lon="3.54206">
        <ele>257</ele>
        <time>2016-05-06T11:56:42+02:00</time>
      </trkpt>
      <trkpt lat="43.73487" lon="3.54203">
        <ele>256</ele>
        <time>2016-05-06T11:57:22+02:00</time>
      </trkpt>
      <trkpt lat="43.73487" lon="3.54199">
        <ele>256</ele>
        <time>2016-05-06T11:57:35+02:00</time>
      </trkpt>
      <trkpt lat="43.73484" lon="3.54195">
        <ele>258</ele>
        <time>2016-05-06T11:57:40+02:00</time>
      </trkpt>
      <trkpt lat="43.73482" lon="3.54182">
        <ele>258</ele>
        <time>2016-05-06T11:57:48+02:00</time>
      </trkpt>
      <trkpt lat="43.73482" lon="3.54175">
        <ele>258</ele>
        <time>2016-05-06T11:57:53+02:00</time>
      </trkpt>
      <trkpt lat="43.73481" lon="3.54168">
        <ele>259</ele>
        <time>2016-05-06T11:57:58+02:00</time>
      </trkpt>
      <trkpt lat="43.7348" lon="3.54162">
        <ele>259</ele>
        <time>2016-05-06T11:58:03+02:00</time>
      </trkpt>
      <trkpt lat="43.7348" lon="3.54155">
        <ele>258</ele>
        <time>2016-05-06T11:58:09+02:00</time>
      </trkpt>
      <trkpt lat="43.73475" lon="3.54145">
        <ele>261</ele>
        <time>2016-05-06T11:58:18+02:00</time>
      </trkpt>
      <trkpt lat="43.73476" lon="3.5413">
        <ele>259</ele>
        <time>2016-05-06T11:58:32+02:00</time>
      </trkpt>
      <trkpt lat="43.73485" lon="3.54085">
        <ele>250</ele>
        <time>2016-05-06T11:59:05+02:00</time>
      </trkpt>
      <trkpt lat="43.73487" lon="3.54072">
        <ele>249</ele>
        <time>2016-05-06T11:59:15+02:00</time>
      </trkpt>
      <trkpt lat="43.73489" lon="3.54046">
        <ele>247</ele>
        <time>2016-05-06T11:59:34+02:00</time>
      </trkpt>
      <trkpt lat="43.73485" lon="3.53996">
        <ele>249</ele>
        <time>2016-05-06T12:00:12+02:00</time>
      </trkpt>
      <trkpt lat="43.7348" lon="3.53971">
        <ele>257</ele>
        <time>2016-05-06T12:00:34+02:00</time>
      </trkpt>
      <trkpt lat="43.73483" lon="3.53958">
        <ele>259</ele>
        <time>2016-05-06T12:00:42+02:00</time>
      </trkpt>
      <trkpt lat="43.73485" lon="3.53946">
        <ele>260</ele>
        <time>2016-05-06T12:00:58+02:00</time>
      </trkpt>
      <trkpt lat="43.73489" lon="3.53949">
        <ele>258</ele>
        <time>2016-05-06T12:01:02+02:00</time>
      </trkpt>
      <trkpt lat="43.73515" lon="3.53966">
        <ele>246</ele>
        <time>2016-05-06T12:01:32+02:00</time>
      </trkpt>
      <trkpt lat="43.73541" lon="3.53981">
        <ele>234</ele>
        <time>2016-05-06T12:02:04+02:00</time>
      </trkpt>
      <trkpt lat="43.7356" lon="3.53984">
        <ele>228</ele>
        <time>2016-05-06T12:02:25+02:00</time>
      </trkpt>
      <trkpt lat="43.73557" lon="3.53988">
        <ele>227</ele>
        <time>2016-05-06T12:03:09+02:00</time>
      </trkpt>
      <trkpt lat="43.73548" lon="3.53986">
        <ele>230</ele>
        <time>2016-05-06T12:03:18+02:00</time>
      </trkpt>
      <trkpt lat="43.73519" lon="3.53986">
        <ele>238</ele>
        <time>2016-05-06T12:03:50+02:00</time>
      </trkpt>
      <trkpt lat="43.7351" lon="3.53987">
        <ele>241</ele>
        <time>2016-05-06T12:04:00+02:00</time>
      </trkpt>
      <trkpt lat="43.73512" lon="3.54001">
        <ele>236</ele>
        <time>2016-05-06T12:04:27+02:00</time>
      </trkpt>
      <trkpt lat="43.73519" lon="3.5401">
        <ele>234</ele>
        <time>2016-05-06T12:04:42+02:00</time>
      </trkpt>
      <trkpt lat="43.73526" lon="3.54018">
        <ele>231</ele>
        <time>2016-05-06T12:04:55+02:00</time>
      </trkpt>
      <trkpt lat="43.73534" lon="3.54068">
        <ele>224</ele>
        <time>2016-05-06T12:05:35+02:00</time>
      </trkpt>
      <trkpt lat="43.73538" lon="3.5408">
        <ele>221</ele>
        <time>2016-05-06T12:05:43+02:00</time>
      </trkpt>
      <trkpt lat="43.73537" lon="3.54094">
        <ele>222</ele>
        <time>2016-05-06T12:05:50+02:00</time>
      </trkpt>
      <trkpt lat="43.73538" lon="3.54106">
        <ele>222</ele>
        <time>2016-05-06T12:06:01+02:00</time>
      </trkpt>
      <trkpt lat="43.73544" lon="3.54117">
        <ele>220</ele>
        <time>2016-05-06T12:06:10+02:00</time>
      </trkpt>
      <trkpt lat="43.73548" lon="3.54128">
        <ele>218</ele>
        <time>2016-05-06T12:06:28+02:00</time>
      </trkpt>
      <trkpt lat="43.73553" lon="3.54134">
        <ele>216</ele>
        <time>2016-05-06T12:07:06+02:00</time>
      </trkpt>
      <trkpt lat="43.73565" lon="3.54158">
        <ele>211</ele>
        <time>2016-05-06T12:07:42+02:00</time>
      </trkpt>
      <trkpt lat="43.7358" lon="3.5419">
        <ele>202</ele>
        <time>2016-05-06T12:08:21+02:00</time>
      </trkpt>
      <trkpt lat="43.73592" lon="3.54225">
        <ele>195</ele>
        <time>2016-05-06T12:08:54+02:00</time>
      </trkpt>
      <trkpt lat="43.73598" lon="3.54263">
        <ele>190</ele>
        <time>2016-05-06T12:09:24+02:00</time>
      </trkpt>
      <trkpt lat="43.73604" lon="3.54253">
        <ele>189</ele>
        <time>2016-05-06T12:09:35+02:00</time>
      </trkpt>
      <trkpt lat="43.73607" lon="3.5424">
        <ele>188</ele>
        <time>2016-05-06T12:09:47+02:00</time>
      </trkpt>
      <trkpt lat="43.73608" lon="3.54201">
        <ele>188</ele>
        <time>2016-05-06T12:10:19+02:00</time>
      </trkpt>
      <trkpt lat="43.73617" lon="3.54155">
        <ele>185</ele>
        <time>2016-05-06T12:10:57+02:00</time>
      </trkpt>
      <trkpt lat="43.73615" lon="3.54147">
        <ele>185</ele>
        <time>2016-05-06T12:11:06+02:00</time>
      </trkpt>
      <trkpt lat="43.7362" lon="3.54147">
        <ele>183</ele>
        <time>2016-05-06T12:11:15+02:00</time>
      </trkpt>
      <trkpt lat="43.73627" lon="3.54156">
        <ele>180</ele>
        <time>2016-05-06T12:11:28+02:00</time>
      </trkpt>
      <trkpt lat="43.73633" lon="3.54176">
        <ele>177</ele>
        <time>2016-05-06T12:11:46+02:00</time>
      </trkpt>
      <trkpt lat="43.73633" lon="3.54182">
        <ele>177</ele>
        <time>2016-05-06T12:11:51+02:00</time>
      </trkpt>
      <trkpt lat="43.73643" lon="3.54219">
        <ele>171</ele>
        <time>2016-05-06T12:12:25+02:00</time>
      </trkpt>
      <trkpt lat="43.73646" lon="3.54245">
        <ele>169</ele>
        <time>2016-05-06T12:12:45+02:00</time>
      </trkpt>
      <trkpt lat="43.73641" lon="3.54287">
        <ele>165</ele>
        <time>2016-05-06T12:13:17+02:00</time>
      </trkpt>
      <trkpt lat="43.73639" lon="3.54294">
        <ele>165</ele>
        <time>2016-05-06T12:13:21+02:00</time>
      </trkpt>
      <trkpt lat="43.73635" lon="3.54299">
        <ele>166</ele>
        <time>2016-05-06T12:13:26+02:00</time>
      </trkpt>
      <trkpt lat="43.73622" lon="3.54344">
        <ele>166</ele>
        <time>2016-05-06T12:14:00+02:00</time>
      </trkpt>
      <trkpt lat="43.73622" lon="3.54352">
        <ele>165</ele>
        <time>2016-05-06T12:14:05+02:00</time>
      </trkpt>
      <trkpt lat="43.73618" lon="3.54365">
        <ele>165</ele>
        <time>2016-05-06T12:14:15+02:00</time>
      </trkpt>
      <trkpt lat="43.7362" lon="3.54377">
        <ele>162</ele>
        <time>2016-05-06T12:14:23+02:00</time>
      </trkpt>
      <trkpt lat="43.73619" lon="3.5439">
        <ele>161</ele>
        <time>2016-05-06T12:14:30+02:00</time>
      </trkpt>
      <trkpt lat="43.73617" lon="3.54442">
        <ele>157</ele>
        <time>2016-05-06T12:15:09+02:00</time>
      </trkpt>
      <trkpt lat="43.73618" lon="3.5447">
        <ele>155</ele>
        <time>2016-05-06T12:15:37+02:00</time>
      </trkpt>
      <trkpt lat="43.73619" lon="3.54481">
        <ele>154</ele>
        <time>2016-05-06T12:15:52+02:00</time>
      </trkpt>
      <trkpt lat="43.73621" lon="3.54475">
        <ele>152</ele>
        <time>2016-05-06T12:15:57+02:00</time>
      </trkpt>
      <trkpt lat="43.73637" lon="3.5444">
        <ele>146</ele>
        <time>2016-05-06T12:16:28+02:00</time>
      </trkpt>
      <trkpt lat="43.73651" lon="3.54412">
        <ele>141</ele>
        <time>2016-05-06T12:16:54+02:00</time>
      </trkpt>
      <trkpt lat="43.73655" lon="3.5441">
        <ele>139</ele>
        <time>2016-05-06T12:17:00+02:00</time>
      </trkpt>
      <trkpt lat="43.73656" lon="3.54417">
        <ele>138</ele>
        <time>2016-05-06T12:17:05+02:00</time>
      </trkpt>
      <trkpt lat="43.73651" lon="3.54465">
        <ele>134</ele>
        <time>2016-05-06T12:17:39+02:00</time>
      </trkpt>
      <trkpt lat="43.73652" lon="3.54478">
        <ele>132</ele>
        <time>2016-05-06T12:17:48+02:00</time>
      </trkpt>
      <trkpt lat="43.7365" lon="3.54484">
        <ele>133</ele>
        <time>2016-05-06T12:17:53+02:00</time>
      </trkpt>
      <trkpt lat="43.73644" lon="3.54517">
        <ele>134</ele>
        <time>2016-05-06T12:18:15+02:00</time>
      </trkpt>
      <trkpt lat="43.73645" lon="3.54525">
        <ele>133</ele>
        <time>2016-05-06T12:19:05+02:00</time>
      </trkpt>
      <trkpt lat="43.73643" lon="3.54535">
        <ele>134</ele>
        <time>2016-05-06T12:19:23+02:00</time>
      </trkpt>
      <trkpt lat="43.73645" lon="3.54582">
        <ele>130</ele>
        <time>2016-05-06T12:19:56+02:00</time>
      </trkpt>
      <trkpt lat="43.73644" lon="3.54588">
        <ele>130</ele>
        <time>2016-05-06T12:20:02+02:00</time>
      </trkpt>
      <trkpt lat="43.73646" lon="3.54602">
        <ele>129</ele>
        <time>2016-05-06T12:20:12+02:00</time>
      </trkpt>
      <trkpt lat="43.73666" lon="3.54631">
        <ele>120</ele>
        <time>2016-05-06T12:20:37+02:00</time>
      </trkpt>
      <trkpt lat="43.73665" lon="3.54643">
        <ele>121</ele>
        <time>2016-05-06T12:20:54+02:00</time>
      </trkpt>
      <trkpt lat="43.73676" lon="3.54671">
        <ele>124</ele>
        <time>2016-05-06T12:21:22+02:00</time>
      </trkpt>
      <trkpt lat="43.73671" lon="3.5468">
        <ele>122</ele>
        <time>2016-05-06T13:28:15+02:00</time>
      </trkpt>
      <trkpt lat="43.73669" lon="3.54723">
        <ele>120</ele>
        <time>2016-05-06T13:28:45+02:00</time>
      </trkpt>
      <trkpt lat="43.73669" lon="3.54736">
        <ele>119</ele>
        <time>2016-05-06T13:28:54+02:00</time>
      </trkpt>
      <trkpt lat="43.73663" lon="3.54755">
        <ele>118</ele>
        <time>2016-05-06T13:29:08+02:00</time>
      </trkpt>
      <trkpt lat="43.73658" lon="3.54767">
        <ele>119</ele>
        <time>2016-05-06T13:29:16+02:00</time>
      </trkpt>
      <trkpt lat="43.73656" lon="3.54773">
        <ele>120</ele>
        <time>2016-05-06T13:29:21+02:00</time>
      </trkpt>
      <trkpt lat="43.73651" lon="3.54776">
        <ele>120</ele>
        <time>2016-05-06T13:29:26+02:00</time>
      </trkpt>
      <trkpt lat="43.73641" lon="3.54779">
        <ele>120</ele>
        <time>2016-05-06T13:29:37+02:00</time>
      </trkpt>
      <trkpt lat="43.73626" lon="3.5478">
        <ele>119</ele>
        <time>2016-05-06T13:29:55+02:00</time>
      </trkpt>
      <trkpt lat="43.7362" lon="3.54778">
        <ele>118</ele>
        <time>2016-05-06T13:30:00+02:00</time>
      </trkpt>
      <trkpt lat="43.7361" lon="3.54778">
        <ele>118</ele>
        <time>2016-05-06T13:30:10+02:00</time>
      </trkpt>
      <trkpt lat="43.73596" lon="3.54779">
        <ele>117</ele>
        <time>2016-05-06T13:30:22+02:00</time>
      </trkpt>
      <trkpt lat="43.73587" lon="3.54774">
        <ele>117</ele>
        <time>2016-05-06T13:30:29+02:00</time>
      </trkpt>
      <trkpt lat="43.73578" lon="3.54774">
        <ele>116</ele>
        <time>2016-05-06T13:30:36+02:00</time>
      </trkpt>
      <trkpt lat="43.73559" lon="3.54784">
        <ele>115</ele>
        <time>2016-05-06T13:31:07+02:00</time>
      </trkpt>
      <trkpt lat="43.7355" lon="3.54788">
        <ele>115</ele>
        <time>2016-05-06T13:31:16+02:00</time>
      </trkpt>
      <trkpt lat="43.73541" lon="3.54796">
        <ele>114</ele>
        <time>2016-05-06T13:31:26+02:00</time>
      </trkpt>
      <trkpt lat="43.73537" lon="3.54797">
        <ele>114</ele>
        <time>2016-05-06T13:31:30+02:00</time>
      </trkpt>
      <trkpt lat="43.73528" lon="3.54796">
        <ele>113</ele>
        <time>2016-05-06T13:31:43+02:00</time>
      </trkpt>
      <trkpt lat="43.73523" lon="3.54795">
        <ele>113</ele>
        <time>2016-05-06T13:31:50+02:00</time>
      </trkpt>
      <trkpt lat="43.73518" lon="3.54795">
        <ele>112</ele>
        <time>2016-05-06T13:31:54+02:00</time>
      </trkpt>
      <trkpt lat="43.73514" lon="3.54797">
        <ele>112</ele>
        <time>2016-05-06T13:32:00+02:00</time>
      </trkpt>
      <trkpt lat="43.73508" lon="3.54799">
        <ele>112</ele>
        <time>2016-05-06T13:32:06+02:00</time>
      </trkpt>
      <trkpt lat="43.73503" lon="3.548">
        <ele>111</ele>
        <time>2016-05-06T13:32:11+02:00</time>
      </trkpt>
      <trkpt lat="43.73499" lon="3.54801">
        <ele>111</ele>
        <time>2016-05-06T13:32:16+02:00</time>
      </trkpt>
      <trkpt lat="43.73494" lon="3.54801">
        <ele>111</ele>
        <time>2016-05-06T13:32:21+02:00</time>
      </trkpt>
      <trkpt lat="43.73489" lon="3.548">
        <ele>111</ele>
        <time>2016-05-06T13:32:26+02:00</time>
      </trkpt>
      <trkpt lat="43.73481" lon="3.54806">
        <ele>111</ele>
        <time>2016-05-06T13:32:38+02:00</time>
      </trkpt>
      <trkpt lat="43.73471" lon="3.54817">
        <ele>111</ele>
        <time>2016-05-06T13:32:58+02:00</time>
      </trkpt>
      <trkpt lat="43.73465" lon="3.54823">
        <ele>111</ele>
        <time>2016-05-06T13:33:23+02:00</time>
      </trkpt>
      <trkpt lat="43.73458" lon="3.54826">
        <ele>110</ele>
        <time>2016-05-06T13:33:37+02:00</time>
      </trkpt>
      <trkpt lat="43.73454" lon="3.54828">
        <ele>110</ele>
        <time>2016-05-06T13:35:03+02:00</time>
      </trkpt>
      <trkpt lat="43.73447" lon="3.54837">
        <ele>110</ele>
        <time>2016-05-06T13:35:14+02:00</time>
      </trkpt>
      <trkpt lat="43.73441" lon="3.54839">
        <ele>110</ele>
        <time>2016-05-06T13:35:42+02:00</time>
      </trkpt>
      <trkpt lat="43.73434" lon="3.54848">
        <ele>110</ele>
        <time>2016-05-06T13:35:54+02:00</time>
      </trkpt>
      <trkpt lat="43.73427" lon="3.54857">
        <ele>110</ele>
        <time>2016-05-06T13:36:10+02:00</time>
      </trkpt>
      <trkpt lat="43.73423" lon="3.54865">
        <ele>110</ele>
        <time>2016-05-06T13:36:30+02:00</time>
      </trkpt>
      <trkpt lat="43.73415" lon="3.54871">
        <ele>110</ele>
        <time>2016-05-06T13:36:50+02:00</time>
      </trkpt>
      <trkpt lat="43.73411" lon="3.54878">
        <ele>110</ele>
        <time>2016-05-06T13:37:14+02:00</time>
      </trkpt>
      <trkpt lat="43.73405" lon="3.54893">
        <ele>110</ele>
        <time>2016-05-06T13:37:51+02:00</time>
      </trkpt>
      <trkpt lat="43.73396" lon="3.549">
        <ele>110</ele>
        <time>2016-05-06T13:52:06+02:00</time>
      </trkpt>
      <trkpt lat="43.73415" lon="3.54919">
        <ele>112</ele>
        <time>2016-05-06T13:52:58+02:00</time>
      </trkpt>
      <trkpt lat="43.73403" lon="3.54967">
        <ele>115</ele>
        <time>2016-05-06T13:53:07+02:00</time>
      </trkpt>
      <trkpt lat="43.73382" lon="3.54999">
        <ele>115</ele>
        <time>2016-05-06T13:57:48+02:00</time>
      </trkpt>
      <trkpt lat="43.7339" lon="3.5498">
        <ele>114</ele>
        <time>2016-05-06T13:59:39+02:00</time>
      </trkpt>
      <trkpt lat="43.73403" lon="3.54967">
        <ele>115</ele>
        <time>2016-05-06T13:59:54+02:00</time>
      </trkpt>
      <trkpt lat="43.73405" lon="3.54952">
        <ele>114</ele>
        <time>2016-05-06T14:01:24+02:00</time>
      </trkpt>
      <trkpt lat="43.73415" lon="3.54919">
        <ele>112</ele>
        <time>2016-05-06T14:01:48+02:00</time>
      </trkpt>
      <trkpt lat="43.73397" lon="3.54905">
        <ele>110</ele>
        <time>2016-05-06T14:03:43+02:00</time>
      </trkpt>
      <trkpt lat="43.73422" lon="3.54873">
        <ele>111</ele>
        <time>2016-05-06T14:04:04+02:00</time>
      </trkpt>
      <trkpt lat="43.73432" lon="3.54855">
        <ele>110</ele>
        <time>2016-05-06T14:04:23+02:00</time>
      </trkpt>
      <trkpt lat="43.7344" lon="3.54848">
        <ele>111</ele>
        <time>2016-05-06T14:04:36+02:00</time>
      </trkpt>
      <trkpt lat="43.73474" lon="3.54819">
        <ele>111</ele>
        <time>2016-05-06T14:05:17+02:00</time>
      </trkpt>
      <trkpt lat="43.73491" lon="3.54807">
        <ele>111</ele>
        <time>2016-05-06T14:05:47+02:00</time>
      </trkpt>
      <trkpt lat="43.73518" lon="3.54809">
        <ele>113</ele>
        <time>2016-05-06T14:06:09+02:00</time>
      </trkpt>
      <trkpt lat="43.7352" lon="3.54812">
        <ele>113</ele>
        <time>2016-05-06T14:06:15+02:00</time>
      </trkpt>
      <trkpt lat="43.73526" lon="3.54811">
        <ele>113</ele>
        <time>2016-05-06T14:06:21+02:00</time>
      </trkpt>
      <trkpt lat="43.73531" lon="3.54809">
        <ele>114</ele>
        <time>2016-05-06T14:06:28+02:00</time>
      </trkpt>
      <trkpt lat="43.73541" lon="3.54807">
        <ele>114</ele>
        <time>2016-05-06T14:06:38+02:00</time>
      </trkpt>
      <trkpt lat="43.73546" lon="3.54806">
        <ele>115</ele>
        <time>2016-05-06T14:06:44+02:00</time>
      </trkpt>
      <trkpt lat="43.73553" lon="3.54798">
        <ele>115</ele>
        <time>2016-05-06T14:06:54+02:00</time>
      </trkpt>
      <trkpt lat="43.73577" lon="3.54791">
        <ele>117</ele>
        <time>2016-05-06T14:07:20+02:00</time>
      </trkpt>
      <trkpt lat="43.73602" lon="3.54791">
        <ele>118</ele>
        <time>2016-05-06T14:07:50+02:00</time>
      </trkpt>
      <trkpt lat="43.73611" lon="3.54791">
        <ele>119</ele>
        <time>2016-05-06T14:07:59+02:00</time>
      </trkpt>
      <trkpt lat="43.73631" lon="3.54793">
        <ele>120</ele>
        <time>2016-05-06T14:08:21+02:00</time>
      </trkpt>
      <trkpt lat="43.7364" lon="3.5479">
        <ele>121</ele>
        <time>2016-05-06T14:08:29+02:00</time>
      </trkpt>
      <trkpt lat="43.73658" lon="3.54783">
        <ele>121</ele>
        <time>2016-05-06T14:08:45+02:00</time>
      </trkpt>
      <trkpt lat="43.73664" lon="3.54774">
        <ele>120</ele>
        <time>2016-05-06T14:08:55+02:00</time>
      </trkpt>
      <trkpt lat="43.73669" lon="3.54762">
        <ele>120</ele>
        <time>2016-05-06T14:09:06+02:00</time>
      </trkpt>
      <trkpt lat="43.73673" lon="3.54749">
        <ele>120</ele>
        <time>2016-05-06T14:09:15+02:00</time>
      </trkpt>
      <trkpt lat="43.73675" lon="3.54743">
        <ele>121</ele>
        <time>2016-05-06T14:09:19+02:00</time>
      </trkpt>
      <trkpt lat="43.73673" lon="3.54709">
        <ele>122</ele>
        <time>2016-05-06T14:09:41+02:00</time>
      </trkpt>
      <trkpt lat="43.73677" lon="3.54683">
        <ele>124</ele>
        <time>2016-05-06T14:10:00+02:00</time>
      </trkpt>
      <trkpt lat="43.73674" lon="3.54661">
        <ele>123</ele>
        <time>2016-05-06T14:10:38+02:00</time>
      </trkpt>
      <trkpt lat="43.73661" lon="3.54657">
        <ele>123</ele>
        <time>2016-05-06T14:10:53+02:00</time>
      </trkpt>
      <trkpt lat="43.73654" lon="3.54649">
        <ele>125</ele>
        <time>2016-05-06T14:11:06+02:00</time>
      </trkpt>
      <trkpt lat="43.73647" lon="3.54631">
        <ele>127</ele>
        <time>2016-05-06T14:11:24+02:00</time>
      </trkpt>
      <trkpt lat="43.73638" lon="3.54624">
        <ele>131</ele>
        <time>2016-05-06T14:11:32+02:00</time>
      </trkpt>
      <trkpt lat="43.73634" lon="3.54613">
        <ele>134</ele>
        <time>2016-05-06T14:11:43+02:00</time>
      </trkpt>
      <trkpt lat="43.73636" lon="3.54599">
        <ele>134</ele>
        <time>2016-05-06T14:11:55+02:00</time>
      </trkpt>
      <trkpt lat="43.73638" lon="3.54587">
        <ele>134</ele>
        <time>2016-05-06T14:12:06+02:00</time>
      </trkpt>
      <trkpt lat="43.73639" lon="3.54574">
        <ele>134</ele>
        <time>2016-05-06T14:12:18+02:00</time>
      </trkpt>
      <trkpt lat="43.73637" lon="3.54542">
        <ele>137</ele>
        <time>2016-05-06T14:12:50+02:00</time>
      </trkpt>
      <trkpt lat="43.73639" lon="3.54528">
        <ele>137</ele>
        <time>2016-05-06T14:13:02+02:00</time>
      </trkpt>
      <trkpt lat="43.73639" lon="3.54518">
        <ele>137</ele>
        <time>2016-05-06T14:13:15+02:00</time>
      </trkpt>
      <trkpt lat="43.73639" lon="3.54511">
        <ele>138</ele>
        <time>2016-05-06T14:13:21+02:00</time>
      </trkpt>
      <trkpt lat="43.73643" lon="3.54498">
        <ele>136</ele>
        <time>2016-05-06T14:13:31+02:00</time>
      </trkpt>
      <trkpt lat="43.73647" lon="3.54486">
        <ele>134</ele>
        <time>2016-05-06T14:13:42+02:00</time>
      </trkpt>
      <trkpt lat="43.73649" lon="3.54479">
        <ele>134</ele>
        <time>2016-05-06T14:13:47+02:00</time>
      </trkpt>
      <trkpt lat="43.73652" lon="3.54473">
        <ele>133</ele>
        <time>2016-05-06T14:13:52+02:00</time>
      </trkpt>
      <trkpt lat="43.73655" lon="3.5446">
        <ele>132</ele>
        <time>2016-05-06T14:14:01+02:00</time>
      </trkpt>
      <trkpt lat="43.73658" lon="3.54412">
        <ele>137</ele>
        <time>2016-05-06T14:14:40+02:00</time>
      </trkpt>
      <trkpt lat="43.73651" lon="3.54405">
        <ele>142</ele>
        <time>2016-05-06T14:14:53+02:00</time>
      </trkpt>
      <trkpt lat="43.73646" lon="3.54416">
        <ele>143</ele>
        <time>2016-05-06T14:15:02+02:00</time>
      </trkpt>
      <trkpt lat="43.73635" lon="3.54438">
        <ele>147</ele>
        <time>2016-05-06T14:15:24+02:00</time>
      </trkpt>
      <trkpt lat="43.7363" lon="3.54449">
        <ele>149</ele>
        <time>2016-05-06T14:15:33+02:00</time>
      </trkpt>
      <trkpt lat="43.73623" lon="3.54453">
        <ele>152</ele>
        <time>2016-05-06T14:16:23+02:00</time>
      </trkpt>
      <trkpt lat="43.73622" lon="3.54427">
        <ele>155</ele>
        <time>2016-05-06T14:16:47+02:00</time>
      </trkpt>
      <trkpt lat="43.73622" lon="3.54414">
        <ele>156</ele>
        <time>2016-05-06T14:16:57+02:00</time>
      </trkpt>
      <trkpt lat="43.73621" lon="3.54401">
        <ele>158</ele>
        <time>2016-05-06T14:17:07+02:00</time>
      </trkpt>
      <trkpt lat="43.73615" lon="3.54392">
        <ele>163</ele>
        <time>2016-05-06T14:17:16+02:00</time>
      </trkpt>
      <trkpt lat="43.73613" lon="3.54379">
        <ele>166</ele>
        <time>2016-05-06T14:17:26+02:00</time>
      </trkpt>
      <trkpt lat="43.73621" lon="3.54342">
        <ele>167</ele>
        <time>2016-05-06T14:17:57+02:00</time>
      </trkpt>
      <trkpt lat="43.73622" lon="3.54324">
        <ele>169</ele>
        <time>2016-05-06T14:19:02+02:00</time>
      </trkpt>
      <trkpt lat="43.73633" lon="3.54286">
        <ele>170</ele>
        <time>2016-05-06T14:19:38+02:00</time>
      </trkpt>
      <trkpt lat="43.73636" lon="3.54273">
        <ele>170</ele>
        <time>2016-05-06T14:19:49+02:00</time>
      </trkpt>
      <trkpt lat="43.73644" lon="3.54233">
        <ele>170</ele>
        <time>2016-05-06T14:20:19+02:00</time>
      </trkpt>
      <trkpt lat="43.7364" lon="3.54206">
        <ele>173</ele>
        <time>2016-05-06T14:20:39+02:00</time>
      </trkpt>
      <trkpt lat="43.73627" lon="3.54168">
        <ele>180</ele>
        <time>2016-05-06T14:21:13+02:00</time>
      </trkpt>
      <trkpt lat="43.73625" lon="3.54162">
        <ele>181</ele>
        <time>2016-05-06T14:21:19+02:00</time>
      </trkpt>
      <trkpt lat="43.73622" lon="3.54156">
        <ele>182</ele>
        <time>2016-05-06T14:21:24+02:00</time>
      </trkpt>
      <trkpt lat="43.7362" lon="3.54149">
        <ele>183</ele>
        <time>2016-05-06T14:21:29+02:00</time>
      </trkpt>
      <trkpt lat="43.73617" lon="3.54143">
        <ele>185</ele>
        <time>2016-05-06T14:21:34+02:00</time>
      </trkpt>
      <trkpt lat="43.73616" lon="3.54149">
        <ele>185</ele>
        <time>2016-05-06T14:22:31+02:00</time>
      </trkpt>
      <trkpt lat="43.73614" lon="3.54156">
        <ele>186</ele>
        <time>2016-05-06T14:22:38+02:00</time>
      </trkpt>
      <trkpt lat="43.73614" lon="3.54162">
        <ele>186</ele>
        <time>2016-05-06T14:22:43+02:00</time>
      </trkpt>
      <trkpt lat="43.7361" lon="3.54201">
        <ele>187</ele>
        <time>2016-05-06T14:23:14+02:00</time>
      </trkpt>
      <trkpt lat="43.73604" lon="3.54242">
        <ele>189</ele>
        <time>2016-05-06T14:23:45+02:00</time>
      </trkpt>
      <trkpt lat="43.73599" lon="3.54254">
        <ele>191</ele>
        <time>2016-05-06T14:23:57+02:00</time>
      </trkpt>
      <trkpt lat="43.73598" lon="3.54248">
        <ele>192</ele>
        <time>2016-05-06T14:24:09+02:00</time>
      </trkpt>
      <trkpt lat="43.73597" lon="3.54241">
        <ele>193</ele>
        <time>2016-05-06T14:24:15+02:00</time>
      </trkpt>
      <trkpt lat="43.73586" lon="3.54204">
        <ele>199</ele>
        <time>2016-05-06T14:24:48+02:00</time>
      </trkpt>
      <trkpt lat="43.73581" lon="3.54193">
        <ele>202</ele>
        <time>2016-05-06T14:24:58+02:00</time>
      </trkpt>
      <trkpt lat="43.73567" lon="3.54163">
        <ele>210</ele>
        <time>2016-05-06T14:25:29+02:00</time>
      </trkpt>
      <trkpt lat="43.73554" lon="3.54135">
        <ele>215</ele>
        <time>2016-05-06T14:26:00+02:00</time>
      </trkpt>
      <trkpt lat="43.7354" lon="3.54111">
        <ele>221</ele>
        <time>2016-05-06T14:26:31+02:00</time>
      </trkpt>
      <trkpt lat="43.73538" lon="3.54097">
        <ele>221</ele>
        <time>2016-05-06T14:26:42+02:00</time>
      </trkpt>
      <trkpt lat="43.73538" lon="3.54082">
        <ele>221</ele>
        <time>2016-05-06T14:26:52+02:00</time>
      </trkpt>
      <trkpt lat="43.73531" lon="3.54064">
        <ele>226</ele>
        <time>2016-05-06T14:27:06+02:00</time>
      </trkpt>
      <trkpt lat="43.73523" lon="3.54018">
        <ele>232</ele>
        <time>2016-05-06T14:27:37+02:00</time>
      </trkpt>
      <trkpt lat="43.73519" lon="3.54013">
        <ele>233</ele>
        <time>2016-05-06T14:27:42+02:00</time>
      </trkpt>
      <trkpt lat="43.73518" lon="3.53987">
        <ele>239</ele>
        <time>2016-05-06T14:28:05+02:00</time>
      </trkpt>
      <trkpt lat="43.73512" lon="3.53992">
        <ele>239</ele>
        <time>2016-05-06T14:30:22+02:00</time>
      </trkpt>
      <trkpt lat="43.73511" lon="3.53982">
        <ele>242</ele>
        <time>2016-05-06T14:33:51+02:00</time>
      </trkpt>
      <trkpt lat="43.73528" lon="3.53988">
        <ele>235</ele>
        <time>2016-05-06T14:34:10+02:00</time>
      </trkpt>
      <trkpt lat="43.73557" lon="3.53985">
        <ele>228</ele>
        <time>2016-05-06T14:34:44+02:00</time>
      </trkpt>
      <trkpt lat="43.73564" lon="3.53977">
        <ele>229</ele>
        <time>2016-05-06T14:34:53+02:00</time>
      </trkpt>
      <trkpt lat="43.73571" lon="3.53968">
        <ele>231</ele>
        <time>2016-05-06T14:35:02+02:00</time>
      </trkpt>
      <trkpt lat="43.73582" lon="3.53954">
        <ele>235</ele>
        <time>2016-05-06T14:35:15+02:00</time>
      </trkpt>
      <trkpt lat="43.73592" lon="3.53938">
        <ele>237</ele>
        <time>2016-05-06T14:35:31+02:00</time>
      </trkpt>
      <trkpt lat="43.73612" lon="3.53908">
        <ele>241</ele>
        <time>2016-05-06T14:36:04+02:00</time>
      </trkpt>
      <trkpt lat="43.73615" lon="3.53903">
        <ele>243</ele>
        <time>2016-05-06T14:36:09+02:00</time>
      </trkpt>
      <trkpt lat="43.73617" lon="3.53897">
        <ele>246</ele>
        <time>2016-05-06T14:36:14+02:00</time>
      </trkpt>
      <trkpt lat="43.73619" lon="3.5389">
        <ele>250</ele>
        <time>2016-05-06T14:36:19+02:00</time>
      </trkpt>
      <trkpt lat="43.73622" lon="3.53881">
        <ele>254</ele>
        <time>2016-05-06T14:36:32+02:00</time>
      </trkpt>
      <trkpt lat="43.73624" lon="3.53875">
        <ele>257</ele>
        <time>2016-05-06T14:36:37+02:00</time>
      </trkpt>
      <trkpt lat="43.73627" lon="3.53869">
        <ele>258</ele>
        <time>2016-05-06T14:36:44+02:00</time>
      </trkpt>
      <trkpt lat="43.73629" lon="3.53863">
        <ele>260</ele>
        <time>2016-05-06T14:36:49+02:00</time>
      </trkpt>
      <trkpt lat="43.73631" lon="3.53856">
        <ele>262</ele>
        <time>2016-05-06T14:36:54+02:00</time>
      </trkpt>
      <trkpt lat="43.73635" lon="3.53844">
        <ele>265</ele>
        <time>2016-05-06T14:37:03+02:00</time>
      </trkpt>
      <trkpt lat="43.73637" lon="3.53838">
        <ele>267</ele>
        <time>2016-05-06T14:37:07+02:00</time>
      </trkpt>
      <trkpt lat="43.73638" lon="3.53831">
        <ele>267</ele>
        <time>2016-05-06T14:37:12+02:00</time>
      </trkpt>
      <trkpt lat="43.73636" lon="3.53824">
        <ele>270</ele>
        <time>2016-05-06T14:37:17+02:00</time>
      </trkpt>
      <trkpt lat="43.73635" lon="3.53818">
        <ele>272</ele>
        <time>2016-05-06T14:37:22+02:00</time>
      </trkpt>
      <trkpt lat="43.73632" lon="3.53805">
        <ele>278</ele>
        <time>2016-05-06T14:37:32+02:00</time>
      </trkpt>
      <trkpt lat="43.73626" lon="3.53765">
        <ele>288</ele>
        <time>2016-05-06T14:38:05+02:00</time>
      </trkpt>
      <trkpt lat="43.7362" lon="3.53743">
        <ele>296</ele>
        <time>2016-05-06T14:38:27+02:00</time>
      </trkpt>
      <trkpt lat="43.73617" lon="3.53738">
        <ele>299</ele>
        <time>2016-05-06T14:38:32+02:00</time>
      </trkpt>
      <trkpt lat="43.73615" lon="3.53732">
        <ele>301</ele>
        <time>2016-05-06T14:38:37+02:00</time>
      </trkpt>
      <trkpt lat="43.73611" lon="3.53683">
        <ele>300</ele>
        <time>2016-05-06T14:39:12+02:00</time>
      </trkpt>
      <trkpt lat="43.73607" lon="3.53643">
        <ele>311</ele>
        <time>2016-05-06T14:39:45+02:00</time>
      </trkpt>
      <trkpt lat="43.73606" lon="3.53637">
        <ele>315</ele>
        <time>2016-05-06T14:39:49+02:00</time>
      </trkpt>
      <trkpt lat="43.73606" lon="3.53596">
        <ele>334</ele>
        <time>2016-05-06T14:40:19+02:00</time>
      </trkpt>
      <trkpt lat="43.73604" lon="3.53591">
        <ele>339</ele>
        <time>2016-05-06T14:40:28+02:00</time>
      </trkpt>
      <trkpt lat="43.73601" lon="3.53585">
        <ele>347</ele>
        <time>2016-05-06T14:40:56+02:00</time>
      </trkpt>
      <trkpt lat="43.73598" lon="3.53579">
        <ele>355</ele>
        <time>2016-05-06T14:41:01+02:00</time>
      </trkpt>
      <trkpt lat="43.73597" lon="3.53572">
        <ele>358</ele>
        <time>2016-05-06T14:41:06+02:00</time>
      </trkpt>
      <trkpt lat="43.73597" lon="3.53565">
        <ele>355</ele>
        <time>2016-05-06T14:41:11+02:00</time>
      </trkpt>
      <trkpt lat="43.736" lon="3.5356">
        <ele>349</ele>
        <time>2016-05-06T14:41:15+02:00</time>
      </trkpt>
      <trkpt lat="43.73604" lon="3.53534">
        <ele>340</ele>
        <time>2016-05-06T14:41:33+02:00</time>
      </trkpt>
      <trkpt lat="43.73597" lon="3.53493">
        <ele>350</ele>
        <time>2016-05-06T14:42:01+02:00</time>
      </trkpt>
      <trkpt lat="43.73601" lon="3.53464">
        <ele>336</ele>
        <time>2016-05-06T14:42:20+02:00</time>
      </trkpt>
      <trkpt lat="43.73603" lon="3.53458">
        <ele>330</ele>
        <time>2016-05-06T14:42:25+02:00</time>
      </trkpt>
      <trkpt lat="43.73604" lon="3.53451">
        <ele>327</ele>
        <time>2016-05-06T14:42:30+02:00</time>
      </trkpt>
      <trkpt lat="43.73598" lon="3.53432">
        <ele>335</ele>
        <time>2016-05-06T14:42:43+02:00</time>
      </trkpt>
      <trkpt lat="43.73598" lon="3.53425">
        <ele>334</ele>
        <time>2016-05-06T14:42:49+02:00</time>
      </trkpt>
      <trkpt lat="43.736" lon="3.53411">
        <ele>330</ele>
        <time>2016-05-06T14:42:58+02:00</time>
      </trkpt>
      <trkpt lat="43.736" lon="3.53404">
        <ele>332</ele>
        <time>2016-05-06T14:43:03+02:00</time>
      </trkpt>
      <trkpt lat="43.73598" lon="3.53398">
        <ele>337</ele>
        <time>2016-05-06T14:43:08+02:00</time>
      </trkpt>
      <trkpt lat="43.73599" lon="3.53391">
        <ele>336</ele>
        <time>2016-05-06T14:43:13+02:00</time>
      </trkpt>
      <trkpt lat="43.73601" lon="3.53385">
        <ele>333</ele>
        <time>2016-05-06T14:43:18+02:00</time>
      </trkpt>
      <trkpt lat="43.73607" lon="3.53373">
        <ele>327</ele>
        <time>2016-05-06T14:43:28+02:00</time>
      </trkpt>
      <trkpt lat="43.73609" lon="3.53367">
        <ele>323</ele>
        <time>2016-05-06T14:43:32+02:00</time>
      </trkpt>
      <trkpt lat="43.73611" lon="3.5336">
        <ele>321</ele>
        <time>2016-05-06T14:43:36+02:00</time>
      </trkpt>
      <trkpt lat="43.7362" lon="3.53313">
        <ele>316</ele>
        <time>2016-05-06T14:44:06+02:00</time>
      </trkpt>
      <trkpt lat="43.73621" lon="3.53307">
        <ele>314</ele>
        <time>2016-05-06T14:44:10+02:00</time>
      </trkpt>
      <trkpt lat="43.73623" lon="3.533">
        <ele>313</ele>
        <time>2016-05-06T14:44:15+02:00</time>
      </trkpt>
      <trkpt lat="43.73626" lon="3.53295">
        <ele>310</ele>
        <time>2016-05-06T14:44:19+02:00</time>
      </trkpt>
      <trkpt lat="43.73632" lon="3.53283">
        <ele>302</ele>
        <time>2016-05-06T14:44:28+02:00</time>
      </trkpt>
      <trkpt lat="43.73641" lon="3.53239">
        <ele>298</ele>
        <time>2016-05-06T14:44:59+02:00</time>
      </trkpt>
      <trkpt lat="43.73646" lon="3.5319">
        <ele>297</ele>
        <time>2016-05-06T14:45:32+02:00</time>
      </trkpt>
      <trkpt lat="43.73651" lon="3.53163">
        <ele>294</ele>
        <time>2016-05-06T14:45:52+02:00</time>
      </trkpt>
      <trkpt lat="43.73651" lon="3.53156">
        <ele>296</ele>
        <time>2016-05-06T14:45:57+02:00</time>
      </trkpt>
      <trkpt lat="43.73657" lon="3.53143">
        <ele>292</ele>
        <time>2016-05-06T14:46:06+02:00</time>
      </trkpt>
      <trkpt lat="43.7366" lon="3.5313">
        <ele>293</ele>
        <time>2016-05-06T14:46:15+02:00</time>
      </trkpt>
      <trkpt lat="43.73661" lon="3.53124">
        <ele>293</ele>
        <time>2016-05-06T14:46:20+02:00</time>
      </trkpt>
      <trkpt lat="43.73664" lon="3.53118">
        <ele>291</ele>
        <time>2016-05-06T14:46:25+02:00</time>
      </trkpt>
      <trkpt lat="43.73673" lon="3.53108">
        <ele>289</ele>
        <time>2016-05-06T14:46:38+02:00</time>
      </trkpt>
      <trkpt lat="43.73677" lon="3.53103">
        <ele>290</ele>
        <time>2016-05-06T14:46:44+02:00</time>
      </trkpt>
      <trkpt lat="43.73695" lon="3.53069">
        <ele>307</ele>
        <time>2016-05-06T14:48:17+02:00</time>
      </trkpt>
      <trkpt lat="43.73704" lon="3.53068">
        <ele>305</ele>
        <time>2016-05-06T14:48:42+02:00</time>
      </trkpt>
      <trkpt lat="43.73738" lon="3.53043">
        <ele>318</ele>
        <time>2016-05-06T14:49:18+02:00</time>
      </trkpt>
      <trkpt lat="43.73746" lon="3.53039">
        <ele>317</ele>
        <time>2016-05-06T14:49:45+02:00</time>
      </trkpt>
      <trkpt lat="43.73763" lon="3.53027">
        <ele>328</ele>
        <time>2016-05-06T14:50:03+02:00</time>
      </trkpt>
      <trkpt lat="43.73771" lon="3.53021">
        <ele>334</ele>
        <time>2016-05-06T14:50:13+02:00</time>
      </trkpt>
      <trkpt lat="43.73776" lon="3.53009">
        <ele>344</ele>
        <time>2016-05-06T14:50:24+02:00</time>
      </trkpt>
      <trkpt lat="43.73784" lon="3.53003">
        <ele>349</ele>
        <time>2016-05-06T14:50:40+02:00</time>
      </trkpt>
      <trkpt lat="43.73794" lon="3.53002">
        <ele>350</ele>
        <time>2016-05-06T14:50:53+02:00</time>
      </trkpt>
      <trkpt lat="43.73805" lon="3.53006">
        <ele>346</ele>
        <time>2016-05-06T14:51:26+02:00</time>
      </trkpt>
      <trkpt lat="43.73815" lon="3.53019">
        <ele>336</ele>
        <time>2016-05-06T14:52:04+02:00</time>
      </trkpt>
      <trkpt lat="43.73808" lon="3.52998">
        <ele>352</ele>
        <time>2016-05-06T14:53:08+02:00</time>
      </trkpt>
      <trkpt lat="43.73798" lon="3.5299">
        <ele>356</ele>
        <time>2016-05-06T14:53:33+02:00</time>
      </trkpt>
      <trkpt lat="43.738" lon="3.52986">
        <ele>357</ele>
        <time>2016-05-06T14:53:53+02:00</time>
      </trkpt>
      <trkpt lat="43.73814" lon="3.52989">
        <ele>356</ele>
        <time>2016-05-06T14:55:36+02:00</time>
      </trkpt>
      <trkpt lat="43.73804" lon="3.52978">
        <ele>361</ele>
        <time>2016-05-06T14:55:45+02:00</time>
      </trkpt>
      <trkpt lat="43.73794" lon="3.52977">
        <ele>361</ele>
        <time>2016-05-06T14:56:02+02:00</time>
      </trkpt>
      <trkpt lat="43.73789" lon="3.52976">
        <ele>362</ele>
        <time>2016-05-06T14:57:21+02:00</time>
      </trkpt>
      <trkpt lat="43.73785" lon="3.52988">
        <ele>357</ele>
        <time>2016-05-06T14:57:32+02:00</time>
      </trkpt>
      <trkpt lat="43.73778" lon="3.5298">
        <ele>360</ele>
        <time>2016-05-06T14:57:43+02:00</time>
      </trkpt>
      <trkpt lat="43.73771" lon="3.52964">
        <ele>367</ele>
        <time>2016-05-06T14:58:06+02:00</time>
      </trkpt>
      <trkpt lat="43.73774" lon="3.5296">
        <ele>369</ele>
        <time>2016-05-06T14:58:23+02:00</time>
      </trkpt>
      <trkpt lat="43.73783" lon="3.52973">
        <ele>363</ele>
        <time>2016-05-06T14:59:03+02:00</time>
      </trkpt>
      <trkpt lat="43.7379" lon="3.52963">
        <ele>367</ele>
        <time>2016-05-06T14:59:14+02:00</time>
      </trkpt>
      <trkpt lat="43.73794" lon="3.52966">
        <ele>366</ele>
      </trkpt>
      <trkpt lat="43.738" lon="3.52964">
        <ele>367</ele>
        <time>2016-05-06T14:59:20+02:00</time>
      </trkpt>
      <trkpt lat="43.7381" lon="3.5297">
        <ele>364</ele>
        <time>2016-05-06T14:59:27+02:00</time>
      </trkpt>
      <trkpt lat="43.73823" lon="3.5298">
        <ele>360</ele>
        <time>2016-05-06T15:00:05+02:00</time>
      </trkpt>
      <trkpt lat="43.73825" lon="3.52998">
        <ele>352</ele>
        <time>2016-05-06T15:00:12+02:00</time>
      </trkpt>
      <trkpt lat="43.7383" lon="3.53014">
        <ele>340</ele>
      </trkpt>
      <trkpt lat="43.73826" lon="3.53027">
        <ele>330</ele>
        <time>2016-05-06T15:00:31+02:00</time>
      </trkpt>
      <trkpt lat="43.73847" lon="3.53042">
        <ele>322</ele>
        <time>2016-05-06T15:00:52+02:00</time>
      </trkpt>
      <trkpt lat="43.73852" lon="3.53044">
        <ele>322</ele>
        <time>2016-05-06T15:01:00+02:00</time>
      </trkpt>
      <trkpt lat="43.73861" lon="3.53048">
        <ele>321</ele>
        <time>2016-05-06T15:01:12+02:00</time>
      </trkpt>
      <trkpt lat="43.73886" lon="3.53047">
        <ele>328</ele>
        <time>2016-05-06T15:01:44+02:00</time>
      </trkpt>
      <trkpt lat="43.73894" lon="3.53051">
        <ele>329</ele>
        <time>2016-05-06T15:01:55+02:00</time>
      </trkpt>
      <trkpt lat="43.73899" lon="3.53049">
        <ele>330</ele>
        <time>2016-05-06T15:02:00+02:00</time>
      </trkpt>
      <trkpt lat="43.73903" lon="3.53045">
        <ele>332</ele>
        <time>2016-05-06T15:02:06+02:00</time>
      </trkpt>
      <trkpt lat="43.73909" lon="3.53045">
        <ele>334</ele>
        <time>2016-05-06T15:02:12+02:00</time>
      </trkpt>
      <trkpt lat="43.73932" lon="3.53037">
        <ele>331</ele>
        <time>2016-05-06T15:02:38+02:00</time>
      </trkpt>
      <trkpt lat="43.73941" lon="3.53028">
        <ele>329</ele>
        <time>2016-05-06T15:02:48+02:00</time>
      </trkpt>
      <trkpt lat="43.73943" lon="3.53022">
        <ele>328</ele>
        <time>2016-05-06T15:02:52+02:00</time>
      </trkpt>
      <trkpt lat="43.73945" lon="3.53015">
        <ele>328</ele>
        <time>2016-05-06T15:02:58+02:00</time>
      </trkpt>
      <trkpt lat="43.73946" lon="3.53009">
        <ele>328</ele>
        <time>2016-05-06T15:03:03+02:00</time>
      </trkpt>
      <trkpt lat="43.73947" lon="3.52996">
        <ele>329</ele>
        <time>2016-05-06T15:03:12+02:00</time>
      </trkpt>
      <trkpt lat="43.73946" lon="3.52981">
        <ele>330</ele>
        <time>2016-05-06T15:03:22+02:00</time>
      </trkpt>
      <trkpt lat="43.73947" lon="3.52967">
        <ele>330</ele>
        <time>2016-05-06T15:03:33+02:00</time>
      </trkpt>
      <trkpt lat="43.73947" lon="3.5296">
        <ele>330</ele>
        <time>2016-05-06T15:03:38+02:00</time>
      </trkpt>
      <trkpt lat="43.73948" lon="3.52954">
        <ele>330</ele>
        <time>2016-05-06T15:03:44+02:00</time>
      </trkpt>
      <trkpt lat="43.73948" lon="3.52935">
        <ele>331</ele>
        <time>2016-05-06T15:03:58+02:00</time>
      </trkpt>
      <trkpt lat="43.73952" lon="3.52914">
        <ele>330</ele>
        <time>2016-05-06T15:04:12+02:00</time>
      </trkpt>
      <trkpt lat="43.73951" lon="3.52908">
        <ele>330</ele>
        <time>2016-05-06T15:04:20+02:00</time>
      </trkpt>
      <trkpt lat="43.73954" lon="3.52895">
        <ele>329</ele>
        <time>2016-05-06T15:04:30+02:00</time>
      </trkpt>
      <trkpt lat="43.73955" lon="3.52888">
        <ele>329</ele>
        <time>2016-05-06T15:04:35+02:00</time>
      </trkpt>
      <trkpt lat="43.73954" lon="3.52881">
        <ele>329</ele>
        <time>2016-05-06T15:04:40+02:00</time>
      </trkpt>
      <trkpt lat="43.73956" lon="3.52875">
        <ele>328</ele>
        <time>2016-05-06T15:04:44+02:00</time>
      </trkpt>
      <trkpt lat="43.73958" lon="3.5284">
        <ele>328</ele>
        <time>2016-05-06T15:05:07+02:00</time>
      </trkpt>
      <trkpt lat="43.73954" lon="3.52821">
        <ele>330</ele>
        <time>2016-05-06T15:05:31+02:00</time>
      </trkpt>
      <trkpt lat="43.73955" lon="3.52814">
        <ele>329</ele>
        <time>2016-05-06T15:05:36+02:00</time>
      </trkpt>
      <trkpt lat="43.73959" lon="3.52809">
        <ele>327</ele>
        <time>2016-05-06T15:05:41+02:00</time>
      </trkpt>
      <trkpt lat="43.73967" lon="3.52801">
        <ele>322</ele>
        <time>2016-05-06T15:05:50+02:00</time>
      </trkpt>
      <trkpt lat="43.73973" lon="3.52782">
        <ele>318</ele>
        <time>2016-05-06T15:06:04+02:00</time>
      </trkpt>
      <trkpt lat="43.73971" lon="3.5274">
        <ele>317</ele>
        <time>2016-05-06T15:06:35+02:00</time>
      </trkpt>
      <trkpt lat="43.73971" lon="3.52734">
        <ele>316</ele>
        <time>2016-05-06T15:06:40+02:00</time>
      </trkpt>
      <trkpt lat="43.73971" lon="3.52726">
        <ele>315</ele>
        <time>2016-05-06T15:06:46+02:00</time>
      </trkpt>
      <trkpt lat="43.73971" lon="3.52719">
        <ele>314</ele>
        <time>2016-05-06T15:06:50+02:00</time>
      </trkpt>
      <trkpt lat="43.73967" lon="3.52699">
        <ele>315</ele>
        <time>2016-05-06T15:07:04+02:00</time>
      </trkpt>
      <trkpt lat="43.73962" lon="3.52679">
        <ele>315</ele>
        <time>2016-05-06T15:07:21+02:00</time>
      </trkpt>
      <trkpt lat="43.7396" lon="3.52673">
        <ele>315</ele>
        <time>2016-05-06T15:07:25+02:00</time>
      </trkpt>
      <trkpt lat="43.73959" lon="3.52667">
        <ele>315</ele>
        <time>2016-05-06T15:07:29+02:00</time>
      </trkpt>
      <trkpt lat="43.73957" lon="3.5266">
        <ele>316</ele>
        <time>2016-05-06T15:07:34+02:00</time>
      </trkpt>
      <trkpt lat="43.73954" lon="3.52655">
        <ele>317</ele>
        <time>2016-05-06T15:07:38+02:00</time>
      </trkpt>
      <trkpt lat="43.73952" lon="3.52648">
        <ele>317</ele>
        <time>2016-05-06T15:07:43+02:00</time>
      </trkpt>
      <trkpt lat="43.73954" lon="3.52634">
        <ele>316</ele>
        <time>2016-05-06T15:07:52+02:00</time>
      </trkpt>
      <trkpt lat="43.73955" lon="3.52628">
        <ele>315</ele>
        <time>2016-05-06T15:07:56+02:00</time>
      </trkpt>
      <trkpt lat="43.73952" lon="3.52616">
        <ele>315</ele>
        <time>2016-05-06T15:08:04+02:00</time>
      </trkpt>
      <trkpt lat="43.73925" lon="3.52584">
        <ele>322</ele>
        <time>2016-05-06T15:08:38+02:00</time>
      </trkpt>
      <trkpt lat="43.73923" lon="3.52578">
        <ele>323</ele>
        <time>2016-05-06T15:08:42+02:00</time>
      </trkpt>
      <trkpt lat="43.7392" lon="3.52571">
        <ele>323</ele>
        <time>2016-05-06T15:08:47+02:00</time>
      </trkpt>
      <trkpt lat="43.73923" lon="3.52566">
        <ele>321</ele>
        <time>2016-05-06T15:08:56+02:00</time>
      </trkpt>
      <trkpt lat="43.73927" lon="3.52562">
        <ele>320</ele>
        <time>2016-05-06T15:09:04+02:00</time>
      </trkpt>
      <trkpt lat="43.73932" lon="3.52561">
        <ele>318</ele>
        <time>2016-05-06T15:09:10+02:00</time>
      </trkpt>
      <trkpt lat="43.73937" lon="3.5256">
        <ele>317</ele>
        <time>2016-05-06T15:09:15+02:00</time>
      </trkpt>
      <trkpt lat="43.73944" lon="3.52549">
        <ele>315</ele>
        <time>2016-05-06T15:09:23+02:00</time>
      </trkpt>
      <trkpt lat="43.73946" lon="3.52543">
        <ele>314</ele>
        <time>2016-05-06T15:09:28+02:00</time>
      </trkpt>
      <trkpt lat="43.73946" lon="3.52536">
        <ele>314</ele>
        <time>2016-05-06T15:09:32+02:00</time>
      </trkpt>
      <trkpt lat="43.73945" lon="3.5253">
        <ele>314</ele>
        <time>2016-05-06T15:09:36+02:00</time>
      </trkpt>
      <trkpt lat="43.73942" lon="3.52516">
        <ele>314</ele>
        <time>2016-05-06T15:09:45+02:00</time>
      </trkpt>
      <trkpt lat="43.73939" lon="3.5251">
        <ele>314</ele>
        <time>2016-05-06T15:09:50+02:00</time>
      </trkpt>
      <trkpt lat="43.73936" lon="3.52504">
        <ele>314</ele>
        <time>2016-05-06T15:09:58+02:00</time>
      </trkpt>
      <trkpt lat="43.73934" lon="3.52498">
        <ele>314</ele>
        <time>2016-05-06T15:10:02+02:00</time>
      </trkpt>
      <trkpt lat="43.73934" lon="3.52491">
        <ele>314</ele>
        <time>2016-05-06T15:10:06+02:00</time>
      </trkpt>
      <trkpt lat="43.73936" lon="3.52485">
        <ele>314</ele>
        <time>2016-05-06T15:10:11+02:00</time>
      </trkpt>
      <trkpt lat="43.73938" lon="3.52478">
        <ele>314</ele>
        <time>2016-05-06T15:10:16+02:00</time>
      </trkpt>
      <trkpt lat="43.73935" lon="3.52451">
        <ele>315</ele>
        <time>2016-05-06T15:10:34+02:00</time>
      </trkpt>
      <trkpt lat="43.73934" lon="3.52444">
        <ele>315</ele>
        <time>2016-05-06T15:10:39+02:00</time>
      </trkpt>
      <trkpt lat="43.73935" lon="3.52436">
        <ele>315</ele>
        <time>2016-05-06T15:10:44+02:00</time>
      </trkpt>
      <trkpt lat="43.73936" lon="3.52422">
        <ele>315</ele>
        <time>2016-05-06T15:10:54+02:00</time>
      </trkpt>
      <trkpt lat="43.73933" lon="3.52417">
        <ele>315</ele>
        <time>2016-05-06T15:10:58+02:00</time>
      </trkpt>
      <trkpt lat="43.7393" lon="3.52412">
        <ele>315</ele>
        <time>2016-05-06T15:11:03+02:00</time>
      </trkpt>
      <trkpt lat="43.73928" lon="3.52406">
        <ele>315</ele>
        <time>2016-05-06T15:11:08+02:00</time>
      </trkpt>
      <trkpt lat="43.73927" lon="3.524">
        <ele>315</ele>
        <time>2016-05-06T15:11:13+02:00</time>
      </trkpt>
      <trkpt lat="43.73926" lon="3.52393">
        <ele>315</ele>
        <time>2016-05-06T15:11:18+02:00</time>
      </trkpt>
      <trkpt lat="43.73926" lon="3.52379">
        <ele>315</ele>
        <time>2016-05-06T15:11:28+02:00</time>
      </trkpt>
      <trkpt lat="43.73926" lon="3.52373">
        <ele>314</ele>
        <time>2016-05-06T15:11:33+02:00</time>
      </trkpt>
      <trkpt lat="43.73925" lon="3.5235">
        <ele>314</ele>
        <time>2016-05-06T15:11:48+02:00</time>
      </trkpt>
      <trkpt lat="43.73923" lon="3.52345">
        <ele>314</ele>
        <time>2016-05-06T15:11:53+02:00</time>
      </trkpt>
      <trkpt lat="43.73922" lon="3.52338">
        <ele>313</ele>
        <time>2016-05-06T15:11:59+02:00</time>
      </trkpt>
      <trkpt lat="43.73924" lon="3.52335">
        <ele>313</ele>
        <time>2016-05-06T15:19:55+02:00</time>
      </trkpt>
      <trkpt lat="43.73927" lon="3.52329">
        <ele>314</ele>
        <time>2016-05-06T15:20:01+02:00</time>
      </trkpt>
      <trkpt lat="43.73932" lon="3.52319">
        <ele>316</ele>
        <time>2016-05-06T15:20:11+02:00</time>
      </trkpt>
      <trkpt lat="43.73935" lon="3.52313">
        <ele>316</ele>
        <time>2016-05-06T15:20:19+02:00</time>
      </trkpt>
      <trkpt lat="43.7394" lon="3.52309">
        <ele>317</ele>
        <time>2016-05-06T15:20:24+02:00</time>
      </trkpt>
      <trkpt lat="43.73946" lon="3.52297">
        <ele>318</ele>
        <time>2016-05-06T15:20:34+02:00</time>
      </trkpt>
      <trkpt lat="43.73956" lon="3.52281">
        <ele>318</ele>
        <time>2016-05-06T15:20:48+02:00</time>
      </trkpt>
      <trkpt lat="43.7396" lon="3.52278">
        <ele>318</ele>
        <time>2016-05-06T15:20:53+02:00</time>
      </trkpt>
      <trkpt lat="43.73962" lon="3.52272">
        <ele>318</ele>
        <time>2016-05-06T15:20:57+02:00</time>
      </trkpt>
      <trkpt lat="43.73969" lon="3.52262">
        <ele>318</ele>
        <time>2016-05-06T15:21:06+02:00</time>
      </trkpt>
      <trkpt lat="43.73977" lon="3.52256">
        <ele>317</ele>
        <time>2016-05-06T15:21:21+02:00</time>
      </trkpt>
      <trkpt lat="43.73976" lon="3.52254">
        <ele>317</ele>
        <time>2016-05-06T15:21:27+02:00</time>
      </trkpt>
      <trkpt lat="43.73976" lon="3.52247">
        <ele>318</ele>
        <time>2016-05-06T15:21:50+02:00</time>
      </trkpt>
      <trkpt lat="43.73984" lon="3.5223">
        <ele>317</ele>
        <time>2016-05-06T15:22:04+02:00</time>
      </trkpt>
      <trkpt lat="43.73986" lon="3.52225">
        <ele>317</ele>
        <time>2016-05-06T15:22:09+02:00</time>
      </trkpt>
      <trkpt lat="43.73993" lon="3.52193">
        <ele>316</ele>
        <time>2016-05-06T15:22:34+02:00</time>
      </trkpt>
      <trkpt lat="43.73993" lon="3.52187">
        <ele>316</ele>
        <time>2016-05-06T15:22:38+02:00</time>
      </trkpt>
      <trkpt lat="43.73993" lon="3.52172">
        <ele>316</ele>
        <time>2016-05-06T15:22:47+02:00</time>
      </trkpt>
      <trkpt lat="43.73994" lon="3.52166">
        <ele>316</ele>
        <time>2016-05-06T15:22:51+02:00</time>
      </trkpt>
      <trkpt lat="43.73995" lon="3.52153">
        <ele>315</ele>
        <time>2016-05-06T15:23:00+02:00</time>
      </trkpt>
      <trkpt lat="43.73997" lon="3.5214">
        <ele>315</ele>
        <time>2016-05-06T15:23:08+02:00</time>
      </trkpt>
      <trkpt lat="43.73995" lon="3.52133">
        <ele>316</ele>
        <time>2016-05-06T15:23:13+02:00</time>
      </trkpt>
      <trkpt lat="43.73996" lon="3.52127">
        <ele>315</ele>
        <time>2016-05-06T15:23:19+02:00</time>
      </trkpt>
      <trkpt lat="43.73999" lon="3.52113">
        <ele>314</ele>
        <time>2016-05-06T15:23:27+02:00</time>
      </trkpt>
      <trkpt lat="43.73997" lon="3.521">
        <ele>315</ele>
        <time>2016-05-06T15:23:35+02:00</time>
      </trkpt>
      <trkpt lat="43.73999" lon="3.52094">
        <ele>314</ele>
        <time>2016-05-06T15:23:39+02:00</time>
      </trkpt>
      <trkpt lat="43.74004" lon="3.52089">
        <ele>315</ele>
        <time>2016-05-06T15:23:45+02:00</time>
      </trkpt>
      <trkpt lat="43.74019" lon="3.52053">
        <ele>321</ele>
        <time>2016-05-06T15:24:15+02:00</time>
      </trkpt>
      <trkpt lat="43.74023" lon="3.52048">
        <ele>322</ele>
        <time>2016-05-06T15:24:20+02:00</time>
      </trkpt>
      <trkpt lat="43.74028" lon="3.52045">
        <ele>322</ele>
        <time>2016-05-06T15:24:24+02:00</time>
      </trkpt>
      <trkpt lat="43.74031" lon="3.52039">
        <ele>323</ele>
        <time>2016-05-06T15:24:28+02:00</time>
      </trkpt>
      <trkpt lat="43.74065" lon="3.52012">
        <ele>326</ele>
        <time>2016-05-06T15:25:02+02:00</time>
      </trkpt>
      <trkpt lat="43.74086" lon="3.51983">
        <ele>326</ele>
        <time>2016-05-06T15:25:26+02:00</time>
      </trkpt>
      <trkpt lat="43.74089" lon="3.51971">
        <ele>327</ele>
        <time>2016-05-06T15:25:34+02:00</time>
      </trkpt>
      <trkpt lat="43.7411" lon="3.51943">
        <ele>334</ele>
        <time>2016-05-06T15:25:55+02:00</time>
      </trkpt>
      <trkpt lat="43.74112" lon="3.5189">
        <ele>334</ele>
        <time>2016-05-06T15:26:29+02:00</time>
      </trkpt>
      <trkpt lat="43.74101" lon="3.51855">
        <ele>332</ele>
        <time>2016-05-06T15:26:59+02:00</time>
      </trkpt>
      <trkpt lat="43.74095" lon="3.51842">
        <ele>331</ele>
        <time>2016-05-06T15:27:15+02:00</time>
      </trkpt>
      <trkpt lat="43.74086" lon="3.51837">
        <ele>328</ele>
        <time>2016-05-06T15:27:25+02:00</time>
      </trkpt>
      <trkpt lat="43.74084" lon="3.51824">
        <ele>329</ele>
        <time>2016-05-06T15:27:33+02:00</time>
      </trkpt>
      <trkpt lat="43.74084" lon="3.51811">
        <ele>331</ele>
        <time>2016-05-06T15:27:43+02:00</time>
      </trkpt>
      <trkpt lat="43.74092" lon="3.51804">
        <ele>333</ele>
        <time>2016-05-06T15:27:52+02:00</time>
      </trkpt>
      <trkpt lat="43.74109" lon="3.51791">
        <ele>337</ele>
        <time>2016-05-06T15:28:08+02:00</time>
      </trkpt>
      <trkpt lat="43.74111" lon="3.51779">
        <ele>338</ele>
        <time>2016-05-06T15:28:16+02:00</time>
      </trkpt>
      <trkpt lat="43.74137" lon="3.5174">
        <ele>340</ele>
        <time>2016-05-06T15:28:54+02:00</time>
      </trkpt>
      <trkpt lat="43.7414" lon="3.51735">
        <ele>340</ele>
        <time>2016-05-06T15:28:58+02:00</time>
      </trkpt>
      <trkpt lat="43.74153" lon="3.51689">
        <ele>337</ele>
        <time>2016-05-06T15:29:31+02:00</time>
      </trkpt>
      <trkpt lat="43.74159" lon="3.51678">
        <ele>336</ele>
        <time>2016-05-06T15:29:39+02:00</time>
      </trkpt>
      <trkpt lat="43.74164" lon="3.51675">
        <ele>334</ele>
        <time>2016-05-06T15:29:44+02:00</time>
      </trkpt>
      <trkpt lat="43.7417" lon="3.51674">
        <ele>335</ele>
        <time>2016-05-06T15:29:48+02:00</time>
      </trkpt>
      <trkpt lat="43.74176" lon="3.51674">
        <ele>336</ele>
        <time>2016-05-06T15:29:51+02:00</time>
      </trkpt>
      <trkpt lat="43.74181" lon="3.51672">
        <ele>338</ele>
        <time>2016-05-06T15:29:55+02:00</time>
      </trkpt>
      <trkpt lat="43.74188" lon="3.51663">
        <ele>338</ele>
        <time>2016-05-06T15:30:04+02:00</time>
      </trkpt>
      <trkpt lat="43.74191" lon="3.5165">
        <ele>338</ele>
        <time>2016-05-06T15:30:13+02:00</time>
      </trkpt>
      <trkpt lat="43.74194" lon="3.51644">
        <ele>339</ele>
        <time>2016-05-06T15:30:17+02:00</time>
      </trkpt>
      <trkpt lat="43.74197" lon="3.51638">
        <ele>339</ele>
        <time>2016-05-06T15:30:21+02:00</time>
      </trkpt>
      <trkpt lat="43.74203" lon="3.51629">
        <ele>339</ele>
        <time>2016-05-06T15:30:27+02:00</time>
      </trkpt>
      <trkpt lat="43.74204" lon="3.51623">
        <ele>338</ele>
        <time>2016-05-06T15:30:30+02:00</time>
      </trkpt>
      <trkpt lat="43.74199" lon="3.51583">
        <ele>334</ele>
        <time>2016-05-06T15:30:56+02:00</time>
      </trkpt>
      <trkpt lat="43.74201" lon="3.51577">
        <ele>335</ele>
        <time>2016-05-06T15:31:02+02:00</time>
      </trkpt>
      <trkpt lat="43.74205" lon="3.51574">
        <ele>336</ele>
        <time>2016-05-06T15:31:06+02:00</time>
      </trkpt>
      <trkpt lat="43.74204" lon="3.51568">
        <ele>337</ele>
        <time>2016-05-06T15:31:15+02:00</time>
      </trkpt>
      <trkpt lat="43.74201" lon="3.51554">
        <ele>339</ele>
        <time>2016-05-06T15:34:04+02:00</time>
      </trkpt>
      <trkpt lat="43.74198" lon="3.51549">
        <ele>339</ele>
        <time>2016-05-06T15:34:09+02:00</time>
      </trkpt>
      <trkpt lat="43.74197" lon="3.51542">
        <ele>340</ele>
        <time>2016-05-06T15:34:14+02:00</time>
      </trkpt>
      <trkpt lat="43.74192" lon="3.51509">
        <ele>345</ele>
        <time>2016-05-06T15:34:41+02:00</time>
      </trkpt>
      <trkpt lat="43.74206" lon="3.51476">
        <ele>352</ele>
        <time>2016-05-06T15:35:14+02:00</time>
      </trkpt>
      <trkpt lat="43.74211" lon="3.51472">
        <ele>353</ele>
        <time>2016-05-06T15:35:20+02:00</time>
      </trkpt>
      <trkpt lat="43.74217" lon="3.51455">
        <ele>357</ele>
        <time>2016-05-06T15:35:37+02:00</time>
      </trkpt>
      <trkpt lat="43.74218" lon="3.51448">
        <ele>358</ele>
        <time>2016-05-06T15:35:42+02:00</time>
      </trkpt>
      <trkpt lat="43.74215" lon="3.51417">
        <ele>363</ele>
        <time>2016-05-06T15:36:07+02:00</time>
      </trkpt>
      <trkpt lat="43.74215" lon="3.51409">
        <ele>364</ele>
        <time>2016-05-06T15:36:13+02:00</time>
      </trkpt>
      <trkpt lat="43.74214" lon="3.51403">
        <ele>364</ele>
        <time>2016-05-06T15:36:17+02:00</time>
      </trkpt>
      <trkpt lat="43.74212" lon="3.51389">
        <ele>364</ele>
        <time>2016-05-06T15:36:27+02:00</time>
      </trkpt>
      <trkpt lat="43.74212" lon="3.5136">
        <ele>365</ele>
        <time>2016-05-06T15:36:47+02:00</time>
      </trkpt>
      <trkpt lat="43.74212" lon="3.51353">
        <ele>365</ele>
        <time>2016-05-06T15:36:52+02:00</time>
      </trkpt>
      <trkpt lat="43.74211" lon="3.51347">
        <ele>365</ele>
        <time>2016-05-06T15:36:56+02:00</time>
      </trkpt>
      <trkpt lat="43.74211" lon="3.51341">
        <ele>365</ele>
        <time>2016-05-06T15:37:01+02:00</time>
      </trkpt>
      <trkpt lat="43.74215" lon="3.51321">
        <ele>366</ele>
        <time>2016-05-06T15:37:15+02:00</time>
      </trkpt>
      <trkpt lat="43.74218" lon="3.51316">
        <ele>366</ele>
        <time>2016-05-06T15:37:20+02:00</time>
      </trkpt>
      <trkpt lat="43.74244" lon="3.51281">
        <ele>367</ele>
        <time>2016-05-06T15:37:54+02:00</time>
      </trkpt>
      <trkpt lat="43.74247" lon="3.51275">
        <ele>366</ele>
        <time>2016-05-06T15:37:59+02:00</time>
      </trkpt>
      <trkpt lat="43.74249" lon="3.51269">
        <ele>366</ele>
        <time>2016-05-06T15:38:03+02:00</time>
      </trkpt>
      <trkpt lat="43.74251" lon="3.51255">
        <ele>366</ele>
        <time>2016-05-06T15:38:12+02:00</time>
      </trkpt>
      <trkpt lat="43.74255" lon="3.51251">
        <ele>366</ele>
        <time>2016-05-06T15:38:17+02:00</time>
      </trkpt>
      <trkpt lat="43.74269" lon="3.51245">
        <ele>369</ele>
        <time>2016-05-06T15:38:32+02:00</time>
      </trkpt>
      <trkpt lat="43.74274" lon="3.51242">
        <ele>371</ele>
        <time>2016-05-06T15:38:37+02:00</time>
      </trkpt>
      <trkpt lat="43.74285" lon="3.51226">
        <ele>373</ele>
        <time>2016-05-06T15:38:50+02:00</time>
      </trkpt>
      <trkpt lat="43.74286" lon="3.5122">
        <ele>373</ele>
        <time>2016-05-06T15:38:54+02:00</time>
      </trkpt>
      <trkpt lat="43.74287" lon="3.51213">
        <ele>373</ele>
        <time>2016-05-06T15:38:58+02:00</time>
      </trkpt>
      <trkpt lat="43.74309" lon="3.51167">
        <ele>373</ele>
        <time>2016-05-06T15:39:31+02:00</time>
      </trkpt>
      <trkpt lat="43.7432" lon="3.51131">
        <ele>373</ele>
        <time>2016-05-06T15:39:55+02:00</time>
      </trkpt>
      <trkpt lat="43.74328" lon="3.51122">
        <ele>373</ele>
        <time>2016-05-06T15:40:03+02:00</time>
      </trkpt>
      <trkpt lat="43.7433" lon="3.51115">
        <ele>373</ele>
        <time>2016-05-06T15:40:08+02:00</time>
      </trkpt>
      <trkpt lat="43.74329" lon="3.51101">
        <ele>373</ele>
        <time>2016-05-06T15:40:16+02:00</time>
      </trkpt>
      <trkpt lat="43.74329" lon="3.51094">
        <ele>373</ele>
        <time>2016-05-06T15:40:20+02:00</time>
      </trkpt>
      <trkpt lat="43.74327" lon="3.51089">
        <ele>373</ele>
        <time>2016-05-06T15:40:24+02:00</time>
      </trkpt>
      <trkpt lat="43.74324" lon="3.51076">
        <ele>374</ele>
        <time>2016-05-06T15:40:31+02:00</time>
      </trkpt>
      <trkpt lat="43.74321" lon="3.5107">
        <ele>375</ele>
        <time>2016-05-06T15:40:35+02:00</time>
      </trkpt>
      <trkpt lat="43.74312" lon="3.51046">
        <ele>378</ele>
        <time>2016-05-06T15:40:54+02:00</time>
      </trkpt>
      <trkpt lat="43.74319" lon="3.51027">
        <ele>379</ele>
        <time>2016-05-06T15:41:10+02:00</time>
      </trkpt>
      <trkpt lat="43.74318" lon="3.51024">
        <ele>379</ele>
        <time>2016-05-06T15:41:56+02:00</time>
      </trkpt>
      <trkpt lat="43.74314" lon="3.51019">
        <ele>380</ele>
        <time>2016-05-06T15:42:07+02:00</time>
      </trkpt>
      <trkpt lat="43.74312" lon="3.51018">
        <ele>380</ele>
        <time>2016-05-06T15:42:13+02:00</time>
      </trkpt>
      <trkpt lat="43.74309" lon="3.51019">
        <ele>381</ele>
        <time>2016-05-06T15:43:11+02:00</time>
      </trkpt>
      <trkpt lat="43.74309" lon="3.5101">
        <ele>381</ele>
        <time>2016-05-06T15:47:16+02:00</time>
      </trkpt>
      <trkpt lat="43.74309" lon="3.51004">
        <ele>382</ele>
        <time>2016-05-06T15:47:21+02:00</time>
      </trkpt>
      <trkpt lat="43.7431" lon="3.50997">
        <ele>382</ele>
        <time>2016-05-06T15:47:26+02:00</time>
      </trkpt>
      <trkpt lat="43.74307" lon="3.50976">
        <ele>384</ele>
        <time>2016-05-06T15:47:47+02:00</time>
      </trkpt>
      <trkpt lat="43.7429" lon="3.50951">
        <ele>386</ele>
        <time>2016-05-06T15:48:12+02:00</time>
      </trkpt>
      <trkpt lat="43.74289" lon="3.50945">
        <ele>386</ele>
        <time>2016-05-06T15:48:16+02:00</time>
      </trkpt>
      <trkpt lat="43.74289" lon="3.50929">
        <ele>387</ele>
        <time>2016-05-06T15:48:26+02:00</time>
      </trkpt>
      <trkpt lat="43.74289" lon="3.50923">
        <ele>387</ele>
        <time>2016-05-06T15:48:31+02:00</time>
      </trkpt>
      <trkpt lat="43.74279" lon="3.50877">
        <ele>390</ele>
        <time>2016-05-06T15:49:02+02:00</time>
      </trkpt>
      <trkpt lat="43.74278" lon="3.5085">
        <ele>391</ele>
        <time>2016-05-06T15:49:22+02:00</time>
      </trkpt>
      <trkpt lat="43.74277" lon="3.50844">
        <ele>392</ele>
        <time>2016-05-06T15:49:26+02:00</time>
      </trkpt>
      <trkpt lat="43.74274" lon="3.50824">
        <ele>393</ele>
        <time>2016-05-06T15:49:42+02:00</time>
      </trkpt>
      <trkpt lat="43.74274" lon="3.50818">
        <ele>394</ele>
        <time>2016-05-06T15:49:49+02:00</time>
      </trkpt>
      <trkpt lat="43.74268" lon="3.50799">
        <ele>395</ele>
        <time>2016-05-06T15:50:03+02:00</time>
      </trkpt>
      <trkpt lat="43.74269" lon="3.50793">
        <ele>396</ele>
        <time>2016-05-06T15:50:07+02:00</time>
      </trkpt>
      <trkpt lat="43.74267" lon="3.50778">
        <ele>397</ele>
        <time>2016-05-06T15:50:17+02:00</time>
      </trkpt>
      <trkpt lat="43.74265" lon="3.50773">
        <ele>397</ele>
        <time>2016-05-06T15:50:21+02:00</time>
      </trkpt>
      <trkpt lat="43.74265" lon="3.50767">
        <ele>398</ele>
        <time>2016-05-06T15:50:26+02:00</time>
      </trkpt>
      <trkpt lat="43.74267" lon="3.5076">
        <ele>398</ele>
        <time>2016-05-06T15:50:31+02:00</time>
      </trkpt>
      <trkpt lat="43.74265" lon="3.50739">
        <ele>400</ele>
        <time>2016-05-06T15:50:47+02:00</time>
      </trkpt>
      <trkpt lat="43.74272" lon="3.50721">
        <ele>402</ele>
        <time>2016-05-06T15:51:03+02:00</time>
      </trkpt>
      <trkpt lat="43.74273" lon="3.507">
        <ele>403</ele>
        <time>2016-05-06T15:51:20+02:00</time>
      </trkpt>
      <trkpt lat="43.7427" lon="3.50695">
        <ele>404</ele>
        <time>2016-05-06T15:51:26+02:00</time>
      </trkpt>
      <trkpt lat="43.74264" lon="3.50683">
        <ele>405</ele>
        <time>2016-05-06T15:51:36+02:00</time>
      </trkpt>
      <trkpt lat="43.74253" lon="3.50651">
        <ele>408</ele>
        <time>2016-05-06T15:52:02+02:00</time>
      </trkpt>
      <trkpt lat="43.74244" lon="3.50646">
        <ele>410</ele>
        <time>2016-05-06T15:52:12+02:00</time>
      </trkpt>
      <trkpt lat="43.74241" lon="3.50641">
        <ele>412</ele>
        <time>2016-05-06T15:52:17+02:00</time>
      </trkpt>
      <trkpt lat="43.74245" lon="3.50636">
        <ele>412</ele>
        <time>2016-05-06T15:52:22+02:00</time>
      </trkpt>
      <trkpt lat="43.74256" lon="3.50621">
        <ele>414</ele>
        <time>2016-05-06T15:52:39+02:00</time>
      </trkpt>
      <trkpt lat="43.7426" lon="3.50617">
        <ele>415</ele>
        <time>2016-05-06T15:52:45+02:00</time>
      </trkpt>
      <trkpt lat="43.74263" lon="3.50605">
        <ele>417</ele>
        <time>2016-05-06T15:53:00+02:00</time>
      </trkpt>
      <trkpt lat="43.74264" lon="3.50588">
        <ele>420</ele>
        <time>2016-05-06T15:53:32+02:00</time>
      </trkpt>
      <trkpt lat="43.74265" lon="3.50584">
        <ele>421</ele>
        <time>2016-05-06T15:54:16+02:00</time>
      </trkpt>
      <trkpt lat="43.74267" lon="3.50578">
        <ele>422</ele>
        <time>2016-05-06T15:54:22+02:00</time>
      </trkpt>
      <trkpt lat="43.7427" lon="3.50572">
        <ele>423</ele>
        <time>2016-05-06T15:54:29+02:00</time>
      </trkpt>
      <trkpt lat="43.74275" lon="3.50548">
        <ele>427</ele>
        <time>2016-05-06T15:54:56+02:00</time>
      </trkpt>
      <trkpt lat="43.74273" lon="3.50542">
        <ele>427</ele>
        <time>2016-05-06T15:55:01+02:00</time>
      </trkpt>
      <trkpt lat="43.74272" lon="3.50535">
        <ele>428</ele>
        <time>2016-05-06T15:55:08+02:00</time>
      </trkpt>
      <trkpt lat="43.74269" lon="3.5053">
        <ele>428</ele>
        <time>2016-05-06T15:55:14+02:00</time>
      </trkpt>
      <trkpt lat="43.7427" lon="3.50523">
        <ele>430</ele>
        <time>2016-05-06T15:55:21+02:00</time>
      </trkpt>
      <trkpt lat="43.74267" lon="3.50516">
        <ele>430</ele>
        <time>2016-05-06T15:55:26+02:00</time>
      </trkpt>
      <trkpt lat="43.74257" lon="3.50501">
        <ele>431</ele>
        <time>2016-05-06T15:55:41+02:00</time>
      </trkpt>
      <trkpt lat="43.74253" lon="3.50497">
        <ele>431</ele>
        <time>2016-05-06T15:55:46+02:00</time>
      </trkpt>
      <trkpt lat="43.74249" lon="3.50494">
        <ele>431</ele>
        <time>2016-05-06T15:55:52+02:00</time>
      </trkpt>
      <trkpt lat="43.74243" lon="3.50491">
        <ele>432</ele>
        <time>2016-05-06T15:56:03+02:00</time>
      </trkpt>
      <trkpt lat="43.74216" lon="3.50495">
        <ele>434</ele>
        <time>2016-05-06T15:56:39+02:00</time>
      </trkpt>
      <trkpt lat="43.74195" lon="3.50485">
        <ele>437</ele>
        <time>2016-05-06T15:57:12+02:00</time>
      </trkpt>
      <trkpt lat="43.7419" lon="3.50489">
        <ele>437</ele>
        <time>2016-05-06T15:57:29+02:00</time>
      </trkpt>
      <trkpt lat="43.74186" lon="3.50494">
        <ele>436</ele>
        <time>2016-05-06T15:57:34+02:00</time>
      </trkpt>
      <trkpt lat="43.74184" lon="3.50501">
        <ele>435</ele>
        <time>2016-05-06T15:58:58+02:00</time>
      </trkpt>
      <trkpt lat="43.7418" lon="3.50506">
        <ele>435</ele>
        <time>2016-05-06T15:59:04+02:00</time>
      </trkpt>
      <trkpt lat="43.74171" lon="3.50509">
        <ele>436</ele>
        <time>2016-05-06T15:59:14+02:00</time>
      </trkpt>
      <trkpt lat="43.7414" lon="3.50526">
        <ele>436</ele>
        <time>2016-05-06T15:59:46+02:00</time>
      </trkpt>
      <trkpt lat="43.74122" lon="3.50537">
        <ele>435</ele>
        <time>2016-05-06T16:00:05+02:00</time>
      </trkpt>
      <trkpt lat="43.74118" lon="3.50541">
        <ele>435</ele>
        <time>2016-05-06T16:00:10+02:00</time>
      </trkpt>
      <trkpt lat="43.74117" lon="3.50534">
        <ele>436</ele>
        <time>2016-05-06T16:00:18+02:00</time>
      </trkpt>
      <trkpt lat="43.74114" lon="3.50529">
        <ele>436</ele>
        <time>2016-05-06T16:00:24+02:00</time>
      </trkpt>
      <trkpt lat="43.74107" lon="3.50522">
        <ele>437</ele>
        <time>2016-05-06T16:00:34+02:00</time>
      </trkpt>
      <trkpt lat="43.741" lon="3.50515">
        <ele>438</ele>
        <time>2016-05-06T16:00:49+02:00</time>
      </trkpt>
      <trkpt lat="43.74099" lon="3.50512">
        <ele>438</ele>
        <time>2016-05-06T16:02:46+02:00</time>
      </trkpt>
      <trkpt lat="43.74097" lon="3.50503">
        <ele>439</ele>
        <time>2016-05-06T16:05:01+02:00</time>
      </trkpt>
      <trkpt lat="43.74091" lon="3.50462">
        <ele>439</ele>
        <time>2016-05-06T16:05:33+02:00</time>
      </trkpt>
      <trkpt lat="43.74091" lon="3.50441">
        <ele>439</ele>
        <time>2016-05-06T16:05:48+02:00</time>
      </trkpt>
      <trkpt lat="43.74095" lon="3.50429">
        <ele>440</ele>
        <time>2016-05-06T16:05:58+02:00</time>
      </trkpt>
      <trkpt lat="43.74101" lon="3.50417">
        <ele>441</ele>
        <time>2016-05-06T16:06:07+02:00</time>
      </trkpt>
      <trkpt lat="43.74118" lon="3.50383">
        <ele>445</ele>
        <time>2016-05-06T16:06:39+02:00</time>
      </trkpt>
      <trkpt lat="43.74119" lon="3.50369">
        <ele>446</ele>
        <time>2016-05-06T16:06:49+02:00</time>
      </trkpt>
      <trkpt lat="43.74121" lon="3.50363">
        <ele>447</ele>
        <time>2016-05-06T16:06:54+02:00</time>
      </trkpt>
      <trkpt lat="43.74121" lon="3.50356">
        <ele>448</ele>
        <time>2016-05-06T16:06:59+02:00</time>
      </trkpt>
      <trkpt lat="43.74121" lon="3.50308">
        <ele>451</ele>
        <time>2016-05-06T16:07:34+02:00</time>
      </trkpt>
      <trkpt lat="43.74123" lon="3.5028">
        <ele>453</ele>
        <time>2016-05-06T16:07:54+02:00</time>
      </trkpt>
      <trkpt lat="43.74126" lon="3.50275">
        <ele>454</ele>
        <time>2016-05-06T16:07:59+02:00</time>
      </trkpt>
      <trkpt lat="43.74137" lon="3.50234">
        <ele>459</ele>
        <time>2016-05-06T16:08:30+02:00</time>
      </trkpt>
      <trkpt lat="43.74138" lon="3.50229">
        <ele>460</ele>
        <time>2016-05-06T16:08:39+02:00</time>
      </trkpt>
      <trkpt lat="43.74136" lon="3.5023">
        <ele>460</ele>
        <time>2016-05-06T16:10:52+02:00</time>
      </trkpt>
      <trkpt lat="43.74141" lon="3.50227">
        <ele>461</ele>
        <time>2016-05-06T16:11:24+02:00</time>
      </trkpt>
      <trkpt lat="43.74135" lon="3.50227">
        <ele>460</ele>
        <time>2016-05-06T16:11:55+02:00</time>
      </trkpt>
      <trkpt lat="43.74133" lon="3.50225">
        <ele>459</ele>
        <time>2016-05-06T16:13:07+02:00</time>
      </trkpt>
    </trkseg>
  </trk>
</gpx>